Darstellungsparameter: Aktuell verwendete Einstellungen:
Skalierung der Graphiken ... ?
xyx+y,   Skalierungsfaktor:      Skalierung: Modus: x, Faktor: 1
Darstellungszeitraum ... ?
Vom - - bis: - -   Zeitraum: 23.07.2018 - 29.07.2018
Min/Max/Avg-Anzeige ... ?
Zeige MMA aktuell
Zeige MMA Monat
Zeige MMA alles
Zeige --A aktuell
Zeige --A Monat
Zeige --A alles
Keine MMA-Anzeige
MMA:
Keine MMA-Graphiken
MMA-Basis: 23.07.2018 - 29.07.2018
Quicknavigation für Darstellung... ?
Tage:      1T, 2T, 3T, 5T -1T -2T -3T -5T +1T +2T +3T +5T
Wochen: 1W, 2W, 3W -1W -2W -3W +1W +2W +3W
Monate: 1M, 3M, 6M -1M -3M -6M +1M +3M +6M
Jahre:    1J, 3J, 5J, 10J -1J -3J -5J -10J +1J +3J +5J +10J
Nutze für die Darstellung ... ?
Originaldaten oder Mittelwerte auf ...
Stundenbasis Tagesbasis Wochenbasis
Monatsbasis Jahresbasis      Datenbasis: Original-Daten
Darstellen als:
Statistik (Auto) Statistik J:M      Darstellung:
Zur Graphik,    zurück zur Übersicht aller Sensoren.
 
Tabellarische Datenbersicht: ?
 
Sensor: Nr:Datum:Temp:Feuchte:Taupunkt:
Aussen-T/F 1 23-07-2018 00:00:00 20.3 C 71 % 14.87 C
2 23-07-2018 00:05:00 20.1 C 71 % 14.68 C
3 23-07-2018 00:10:00 19.9 C 72 % 14.7 C
4 23-07-2018 00:15:00 19.7 C 72 % 14.51 C
5 23-07-2018 00:20:00 19.6 C 73 % 14.63 C
6 23-07-2018 00:25:00 19.5 C 74 % 14.74 C
7 23-07-2018 00:30:00 19.4 C 74 % 14.65 C
8 23-07-2018 00:35:00 19.3 C 75 % 14.76 C
9 23-07-2018 00:40:00 19.1 C 76 % 14.77 C
10 23-07-2018 00:45:00 18.9 C 76 % 14.58 C
11 23-07-2018 00:50:00 18.8 C 77 % 14.68 C
12 23-07-2018 00:55:00 18.7 C 77 % 14.59 C
13 23-07-2018 01:00:00 18.5 C 77 % 14.39 C
14 23-07-2018 01:05:00 18.3 C 78 % 14.4 C
15 23-07-2018 01:10:00 18.2 C 78 % 14.3 C
16 23-07-2018 01:15:00 18.1 C 79 % 14.4 C
17 23-07-2018 01:20:00 18 C 79 % 14.31 C
18 23-07-2018 01:25:00 17.9 C 80 % 14.4 C
19 23-07-2018 01:30:00 17.8 C 80 % 14.31 C
20 23-07-2018 01:35:00 17.7 C 80 % 14.21 C
21 23-07-2018 01:40:00 17.6 C 81 % 14.3 C
22 23-07-2018 01:45:00 17.5 C 81 % 14.2 C
23 23-07-2018 01:50:00 17.4 C 81 % 14.11 C
24 23-07-2018 01:55:00 17.4 C 81 % 14.11 C
25 23-07-2018 02:00:00 17.4 C 82 % 14.3 C
Sensor: Nr:Datum:Temp:Feuchte:Taupunkt:
Aussen-T/F 26 23-07-2018 02:05:00 17.4 C 82 % 14.3 C
27 23-07-2018 02:10:00 17.3 C 82 % 14.2 C
28 23-07-2018 02:15:00 17.3 C 82 % 14.2 C
29 23-07-2018 02:20:00 17.2 C 83 % 14.29 C
30 23-07-2018 02:25:00 17.2 C 83 % 14.29 C
31 23-07-2018 02:30:00 17.1 C 83 % 14.19 C
32 23-07-2018 02:35:00 17 C 84 % 14.28 C
33 23-07-2018 02:40:00 16.9 C 84 % 14.18 C
34 23-07-2018 02:45:00 16.8 C 84 % 14.08 C
35 23-07-2018 02:50:00 16.8 C 84 % 14.08 C
36 23-07-2018 02:55:00 16.7 C 85 % 14.17 C
37 23-07-2018 03:00:00 16.7 C 85 % 14.17 C
38 23-07-2018 03:05:00 16.7 C 86 % 14.35 C
39 23-07-2018 03:10:00 16.7 C 86 % 14.35 C
40 23-07-2018 03:15:00 16.7 C 86 % 14.35 C
41 23-07-2018 03:20:00 16.7 C 86 % 14.35 C
42 23-07-2018 03:25:00 16.7 C 86 % 14.35 C
43 23-07-2018 03:30:00 16.7 C 86 % 14.35 C
44 23-07-2018 03:35:00 16.7 C 86 % 14.35 C
45 23-07-2018 03:40:00 16.7 C 86 % 14.35 C
46 23-07-2018 03:45:00 16.7 C 86 % 14.35 C
47 23-07-2018 03:50:00 16.7 C 86 % 14.35 C
48 23-07-2018 03:55:00 16.6 C 86 % 14.25 C
49 23-07-2018 04:00:00 16.6 C 86 % 14.25 C
50 23-07-2018 04:05:00 16.6 C 87 % 14.43 C
Sensor: Nr:Datum:Temp:Feuchte:Taupunkt:
Aussen-T/F 51 23-07-2018 04:10:00 16.6 C 87 % 14.43 C
52 23-07-2018 04:15:00 16.6 C 87 % 14.43 C
53 23-07-2018 04:20:00 16.6 C 87 % 14.43 C
54 23-07-2018 04:25:00 16.5 C 87 % 14.33 C
55 23-07-2018 04:30:00 16.4 C 87 % 14.23 C
56 23-07-2018 04:35:00 16.3 C 87 % 14.13 C
57 23-07-2018 04:40:00 16.3 C 87 % 14.13 C
58 23-07-2018 04:45:00 16.2 C 87 % 14.03 C
59 23-07-2018 04:50:00 16.1 C 87 % 13.94 C
60 23-07-2018 04:55:00 16 C 87 % 13.84 C
61 23-07-2018 05:00:00 15.9 C 87 % 13.74 C
62 23-07-2018 05:05:00 15.8 C 87 % 13.64 C
63 23-07-2018 05:10:00 15.8 C 88 % 13.82 C
64 23-07-2018 05:15:00 15.7 C 88 % 13.72 C
65 23-07-2018 05:20:00 15.7 C 89 % 13.89 C
66 23-07-2018 05:25:00 15.6 C 89 % 13.79 C
67 23-07-2018 05:30:00 15.6 C 89 % 13.79 C
68 23-07-2018 05:35:00 15.5 C 89 % 13.7 C
69 23-07-2018 05:40:00 15.5 C 90 % 13.87 C
70 23-07-2018 05:45:00 15.4 C 89 % 13.6 C
71 23-07-2018 05:50:00 15.3 C 89 % 13.5 C
72 23-07-2018 05:55:00 15.3 C 90 % 13.67 C
73 23-07-2018 06:00:00 15.3 C 90 % 13.67 C
74 23-07-2018 06:05:00 15.2 C 90 % 13.57 C
75 23-07-2018 06:10:00 15.2 C 90 % 13.57 C
Sensor: Nr:Datum:Temp:Feuchte:Taupunkt:
Aussen-T/F 76 23-07-2018 06:15:00 15.2 C 90 % 13.57 C
77 23-07-2018 06:20:00 15.2 C 90 % 13.57 C
78 23-07-2018 06:25:00 15.2 C 91 % 13.74 C
79 23-07-2018 06:30:00 15.2 C 91 % 13.74 C
80 23-07-2018 06:35:00 15.2 C 91 % 13.74 C
81 23-07-2018 06:40:00 15.3 C 91 % 13.84 C
82 23-07-2018 06:45:00 15.3 C 91 % 13.84 C
83 23-07-2018 06:50:00 15.3 C 91 % 13.84 C
84 23-07-2018 06:55:00 15.3 C 91 % 13.84 C
85 23-07-2018 07:00:00 15.4 C 91 % 13.94 C
86 23-07-2018 07:05:00 15.4 C 91 % 13.94 C
87 23-07-2018 07:10:00 15.4 C 91 % 13.94 C
88 23-07-2018 07:15:00 15.5 C 91 % 14.04 C
89 23-07-2018 07:20:00 15.6 C 91 % 14.14 C
90 23-07-2018 07:25:00 15.7 C 91 % 14.24 C
91 23-07-2018 07:30:00 15.7 C 92 % 14.4 C
92 23-07-2018 07:35:00 15.8 C 91 % 14.33 C
93 23-07-2018 07:40:00 15.9 C 91 % 14.43 C
94 23-07-2018 07:45:00 16.1 C 91 % 14.63 C
95 23-07-2018 07:50:00 16.2 C 91 % 14.73 C
96 23-07-2018 07:55:00 16.3 C 91 % 14.83 C
97 23-07-2018 08:00:00 16.4 C 91 % 14.93 C
98 23-07-2018 08:05:00 16.6 C 90 % 14.95 C
99 23-07-2018 08:10:00 16.7 C 90 % 15.05 C
100 23-07-2018 08:15:00 16.8 C 90 % 15.15 C
Sensor: Nr:Datum:Temp:Feuchte:Taupunkt:
Aussen-T/F 101 23-07-2018 08:20:00 16.9 C 89 % 15.08 C
102 23-07-2018 08:25:00 17.1 C 89 % 15.27 C
103 23-07-2018 08:30:00 17.2 C 89 % 15.37 C
104 23-07-2018 08:35:00 17.3 C 88 % 15.29 C
105 23-07-2018 08:40:00 17.5 C 88 % 15.49 C
106 23-07-2018 08:45:00 17.7 C 87 % 15.51 C
107 23-07-2018 08:50:00 17.8 C 86 % 15.43 C
108 23-07-2018 08:55:00 18 C 86 % 15.62 C
109 23-07-2018 09:00:00 18.2 C 86 % 15.82 C
110 23-07-2018 09:05:00 18.3 C 85 % 15.74 C
111 23-07-2018 09:10:00 18.6 C 85 % 16.03 C
112 23-07-2018 09:15:00 18.7 C 83 % 15.75 C
113 23-07-2018 09:20:00 19 C 82 % 15.86 C
114 23-07-2018 09:25:00 19.3 C 81 % 15.96 C
115 23-07-2018 09:30:00 19.6 C 79 % 15.86 C
116 23-07-2018 09:35:00 19.8 C 79 % 16.05 C
117 23-07-2018 09:40:00 20 C 79 % 16.25 C
118 23-07-2018 09:45:00 20.1 C 78 % 16.14 C
119 23-07-2018 09:50:00 20.3 C 78 % 16.34 C
120 23-07-2018 09:55:00 20.4 C 77 % 16.23 C
121 23-07-2018 10:00:00 20.6 C 77 % 16.43 C
122 23-07-2018 10:05:00 20.7 C 77 % 16.52 C
123 23-07-2018 10:10:00 20.7 C 76 % 16.32 C
124 23-07-2018 10:15:00 20.8 C 75 % 16.21 C
125 23-07-2018 10:20:00 21.1 C 76 % 16.7 C
Sensor: Nr:Datum:Temp:Feuchte:Taupunkt:
Aussen-T/F 126 23-07-2018 10:25:00 21.2 C 75 % 16.59 C
127 23-07-2018 10:30:00 21.4 C 72 % 16.14 C
128 23-07-2018 10:35:00 21.8 C 71 % 16.31 C
129 23-07-2018 10:40:00 22.2 C 70 % 16.47 C
130 23-07-2018 10:45:00 22.6 C 67 % 16.16 C
131 23-07-2018 10:50:00 22.9 C 66 % 16.21 C
132 23-07-2018 10:55:00 23.1 C 63 % 15.67 C
133 23-07-2018 11:00:00 23.2 C 61 % 15.26 C
134 23-07-2018 11:05:00 23.3 C 62 % 15.61 C
135 23-07-2018 11:10:00 23.6 C 61 % 15.64 C
136 23-07-2018 11:15:00 23.7 C 59 % 15.21 C
137 23-07-2018 11:20:00 23.8 C 59 % 15.31 C
138 23-07-2018 11:25:00 23.9 C 59 % 15.4 C
139 23-07-2018 11:30:00 24.1 C 58 % 15.32 C
140 23-07-2018 11:35:00 24.1 C 58 % 15.32 C
141 23-07-2018 11:40:00 24.2 C 58 % 15.42 C
142 23-07-2018 11:45:00 24.4 C 57 % 15.33 C
143 23-07-2018 11:50:00 24.7 C 58 % 15.88 C
144 23-07-2018 11:55:00 24.9 C 55 % 15.24 C
145 23-07-2018 12:00:00 25.2 C 55 % 15.52 C
146 23-07-2018 12:05:00 25.2 C 55 % 15.52 C
147 23-07-2018 12:10:00 25.3 C 55 % 15.61 C
148 23-07-2018 12:15:00 25.4 C 55 % 15.7 C
149 23-07-2018 12:20:00 25.7 C 55 % 15.98 C
150 23-07-2018 12:25:00 25.9 C 53 % 15.59 C
Sensor: Nr:Datum:Temp:Feuchte:Taupunkt:
Aussen-T/F 151 23-07-2018 12:30:00 26.1 C 53 % 15.77 C
152 23-07-2018 12:35:00 26.2 C 53 % 15.87 C
153 23-07-2018 12:40:00 26.2 C 52 % 15.57 C
154 23-07-2018 12:45:00 26.2 C 54 % 16.16 C
155 23-07-2018 12:50:00 26.2 C 54 % 16.16 C
156 23-07-2018 12:55:00 26.2 C 52 % 15.57 C
157 23-07-2018 13:00:00 26.4 C 53 % 16.05 C
158 23-07-2018 13:05:00 26.5 C 52 % 15.84 C
159 23-07-2018 13:10:00 26.7 C 52 % 16.03 C
160 23-07-2018 13:15:00 26.8 C 51 % 15.82 C
161 23-07-2018 13:20:00 26.8 C 51 % 15.82 C
162 23-07-2018 13:25:00 26.9 C 52 % 16.21 C
163 23-07-2018 13:30:00 27.1 C 51 % 16.09 C
164 23-07-2018 13:35:00 26.9 C 51 % 15.91 C
165 23-07-2018 13:40:00 26.7 C 52 % 16.03 C
166 23-07-2018 13:45:00 26.6 C 52 % 15.94 C
167 23-07-2018 13:50:00 26.5 C 52 % 15.84 C
168 23-07-2018 13:55:00 26.6 C 52 % 15.94 C
169 23-07-2018 14:00:00 26.7 C 52 % 16.03 C
170 23-07-2018 14:05:00 26.8 C 51 % 15.82 C
171 23-07-2018 14:10:00 26.9 C 51 % 15.91 C
172 23-07-2018 14:15:00 27.1 C 50 % 15.78 C
173 23-07-2018 14:20:00 27.2 C 50 % 15.87 C
174 23-07-2018 14:25:00 27.3 C 49 % 15.65 C
175 23-07-2018 14:30:00 27.3 C 50 % 15.97 C
Sensor: Nr:Datum:Temp:Feuchte:Taupunkt:
Aussen-T/F 176 23-07-2018 14:35:00 27.3 C 49 % 15.65 C
177 23-07-2018 14:40:00 27.3 C 50 % 15.97 C
178 23-07-2018 14:45:00 27.4 C 49 % 15.74 C
179 23-07-2018 14:50:00 27.7 C 50 % 16.33 C
180 23-07-2018 14:55:00 28 C 48 % 15.97 C
181 23-07-2018 15:00:00 28.2 C 48 % 16.15 C
182 23-07-2018 15:05:00 28.2 C 48 % 16.15 C
183 23-07-2018 15:10:00 28.3 C 47 % 15.91 C
184 23-07-2018 15:15:00 28.2 C 47 % 15.82 C
185 23-07-2018 15:20:00 28.1 C 47 % 15.73 C
186 23-07-2018 15:25:00 28.1 C 48 % 16.06 C
187 23-07-2018 15:30:00 28.1 C 48 % 16.06 C
188 23-07-2018 15:35:00 28 C 47 % 15.64 C
189 23-07-2018 15:40:00 27.8 C 48 % 15.78 C
190 23-07-2018 15:45:00 27.8 C 48 % 15.78 C
191 23-07-2018 15:50:00 27.7 C 47 % 15.36 C
192 23-07-2018 15:55:00 27.7 C 48 % 15.69 C
193 23-07-2018 16:00:00 27.7 C 48 % 15.69 C
194 23-07-2018 16:05:00 27.8 C 48 % 15.78 C
195 23-07-2018 16:10:00 27.8 C 47 % 15.45 C
196 23-07-2018 16:15:00 27.9 C 47 % 15.55 C
197 23-07-2018 16:20:00 27.9 C 47 % 15.55 C
198 23-07-2018 16:25:00 27.9 C 48 % 15.87 C
199 23-07-2018 16:30:00 27.9 C 47 % 15.55 C
200 23-07-2018 16:35:00 28 C 48 % 15.97 C
Sensor: Nr:Datum:Temp:Feuchte:Taupunkt:
Aussen-T/F 201 23-07-2018 16:40:00 28.1 C 48 % 16.06 C
202 23-07-2018 16:45:00 28.1 C 48 % 16.06 C
203 23-07-2018 16:50:00 28.2 C 49 % 16.47 C
204 23-07-2018 16:55:00 28.7 C 47 % 16.27 C
205 23-07-2018 17:00:00 29.2 C 46 % 16.39 C
206 23-07-2018 17:05:00 29.5 C 45 % 16.32 C
207 23-07-2018 17:10:00 29.7 C 44 % 16.14 C
208 23-07-2018 17:15:00 29.6 C 44 % 16.05 C
209 23-07-2018 17:20:00 29.7 C 45 % 16.5 C
210 23-07-2018 17:25:00 29.9 C 44 % 16.32 C
211 23-07-2018 17:30:00 29.9 C 44 % 16.32 C
212 23-07-2018 17:35:00 29.9 C 44 % 16.32 C
213 23-07-2018 17:40:00 29.9 C 43 % 15.96 C
214 23-07-2018 17:45:00 30 C 43 % 16.05 C
215 23-07-2018 17:50:00 30.2 C 43 % 16.23 C
216 23-07-2018 17:55:00 30.3 C 42 % 15.95 C
217 23-07-2018 18:00:00 30.4 C 42 % 16.04 C
218 23-07-2018 18:05:00 30.3 C 41 % 15.58 C
219 23-07-2018 18:10:00 30.4 C 42 % 16.04 C
220 23-07-2018 18:15:00 30.7 C 42 % 16.31 C
221 23-07-2018 18:20:00 30.9 C 40 % 15.73 C
222 23-07-2018 18:25:00 30.9 C 40 % 15.73 C
223 23-07-2018 18:30:00 31.1 C 40 % 15.9 C
224 23-07-2018 18:35:00 31.2 C 40 % 15.99 C
225 23-07-2018 18:40:00 31.1 C 40 % 15.9 C
Sensor: Nr:Datum:Temp:Feuchte:Taupunkt:
Aussen-T/F 226 23-07-2018 18:45:00 30.9 C 40 % 15.73 C
227 23-07-2018 18:50:00 30.6 C 41 % 15.85 C
228 23-07-2018 18:55:00 30.2 C 42 % 15.86 C
229 23-07-2018 19:00:00 30.1 C 42 % 15.77 C
230 23-07-2018 19:05:00 29.8 C 43 % 15.87 C
231 23-07-2018 19:10:00 29.6 C 44 % 16.05 C
232 23-07-2018 19:15:00 29.6 C 43 % 15.69 C
233 23-07-2018 19:20:00 29.5 C 44 % 15.96 C
234 23-07-2018 19:25:00 29.5 C 44 % 15.96 C
235 23-07-2018 19:30:00 29.4 C 43 % 15.51 C
236 23-07-2018 19:35:00 29.3 C 43 % 15.42 C
237 23-07-2018 19:40:00 29.1 C 44 % 15.6 C
238 23-07-2018 19:45:00 29 C 45 % 15.86 C
239 23-07-2018 19:50:00 28.9 C 45 % 15.77 C
240 23-07-2018 19:55:00 28.8 C 45 % 15.68 C
241 23-07-2018 20:00:00 28.7 C 45 % 15.59 C
242 23-07-2018 20:05:00 28.6 C 50 % 17.16 C
243 23-07-2018 20:10:00 28.3 C 48 % 16.24 C
244 23-07-2018 20:15:00 27.9 C 49 % 16.2 C
245 23-07-2018 20:20:00 27.8 C 49 % 16.11 C
246 23-07-2018 20:25:00 27.7 C 49 % 16.01 C
247 23-07-2018 20:30:00 27.6 C 50 % 16.24 C
248 23-07-2018 20:35:00 27.5 C 49 % 15.83 C
249 23-07-2018 20:40:00 27.4 C 51 % 16.37 C
250 23-07-2018 20:45:00 27.3 C 50 % 15.97 C
Sensor: Nr:Datum:Temp:Feuchte:Taupunkt:
Aussen-T/F 251 23-07-2018 20:50:00 27.3 C 50 % 15.97 C
252 23-07-2018 20:55:00 27.2 C 53 % 16.79 C
253 23-07-2018 21:00:00 27 C 54 % 16.9 C
254 23-07-2018 21:05:00 26.6 C 54 % 16.53 C
255 23-07-2018 21:10:00 26.2 C 55 % 16.45 C
256 23-07-2018 21:15:00 25.8 C 56 % 16.36 C
257 23-07-2018 21:20:00 25.3 C 58 % 16.44 C
258 23-07-2018 21:25:00 24.9 C 59 % 16.34 C
259 23-07-2018 21:30:00 24.6 C 60 % 16.32 C
260 23-07-2018 21:35:00 24.2 C 61 % 16.2 C
261 23-07-2018 21:40:00 23.8 C 61 % 15.83 C
262 23-07-2018 21:45:00 23.6 C 62 % 15.89 C
263 23-07-2018 21:50:00 23.4 C 63 % 15.96 C
264 23-07-2018 21:55:00 23.2 C 63 % 15.77 C
265 23-07-2018 22:00:00 23 C 64 % 15.82 C
266 23-07-2018 22:05:00 22.8 C 65 % 15.88 C
267 23-07-2018 22:10:00 22.7 C 66 % 16.02 C
268 23-07-2018 22:15:00 22.6 C 66 % 15.93 C
269 23-07-2018 22:20:00 22.5 C 66 % 15.83 C
270 23-07-2018 22:25:00 22.3 C 67 % 15.88 C
271 23-07-2018 22:30:00 22.2 C 68 % 16.01 C
272 23-07-2018 22:35:00 22 C 69 % 16.05 C
273 23-07-2018 22:40:00 21.8 C 69 % 15.86 C
274 23-07-2018 22:45:00 21.6 C 70 % 15.89 C
275 23-07-2018 22:50:00 21.5 C 71 % 16.02 C
Sensor: Nr:Datum:Temp:Feuchte:Taupunkt:
Aussen-T/F 276 23-07-2018 22:55:00 21.3 C 71 % 15.83 C
277 23-07-2018 23:00:00 21.2 C 71 % 15.73 C
278 23-07-2018 23:05:00 21.1 C 72 % 15.86 C
279 23-07-2018 23:10:00 20.9 C 73 % 15.88 C
280 23-07-2018 23:15:00 20.6 C 73 % 15.59 C
281 23-07-2018 23:20:00 20.4 C 74 % 15.61 C
282 23-07-2018 23:25:00 20.3 C 75 % 15.72 C
283 23-07-2018 23:30:00 20.2 C 75 % 15.63 C
284 23-07-2018 23:35:00 20.1 C 76 % 15.74 C
285 23-07-2018 23:40:00 20 C 76 % 15.64 C
286 23-07-2018 23:45:00 19.9 C 76 % 15.54 C
287 23-07-2018 23:50:00 19.8 C 77 % 15.65 C
288 23-07-2018 23:55:00 19.7 C 77 % 15.56 C
289 24-07-2018 00:00:00 19.6 C 77 % 15.46 C
290 24-07-2018 00:05:00 19.5 C 78 % 15.56 C
291 24-07-2018 00:10:00 19.4 C 78 % 15.47 C
292 24-07-2018 00:15:00 19.3 C 79 % 15.57 C
293 24-07-2018 00:20:00 19.2 C 79 % 15.47 C
294 24-07-2018 00:25:00 19.1 C 79 % 15.37 C
295 24-07-2018 00:30:00 18.9 C 80 % 15.38 C
296 24-07-2018 00:35:00 18.9 C 80 % 15.38 C
297 24-07-2018 00:40:00 18.8 C 80 % 15.28 C
298 24-07-2018 00:45:00 18.8 C 80 % 15.28 C
299 24-07-2018 00:50:00 18.7 C 80 % 15.18 C
300 24-07-2018 00:55:00 18.7 C 80 % 15.18 C
Sensor: Nr:Datum:Temp:Feuchte:Taupunkt:
Aussen-T/F 301 24-07-2018 01:00:00 18.6 C 81 % 15.28 C
302 24-07-2018 01:05:00 18.4 C 81 % 15.08 C
303 24-07-2018 01:10:00 18.3 C 82 % 15.17 C
304 24-07-2018 01:15:00 18.3 C 82 % 15.17 C
305 24-07-2018 01:20:00 18.2 C 82 % 15.08 C
306 24-07-2018 01:25:00 18.1 C 82 % 14.98 C
307 24-07-2018 01:30:00 18.1 C 83 % 15.17 C
308 24-07-2018 01:35:00 18 C 83 % 15.07 C
309 24-07-2018 01:40:00 18 C 83 % 15.07 C
310 24-07-2018 01:45:00 17.9 C 84 % 15.16 C
311 24-07-2018 01:50:00 17.9 C 83 % 14.97 C
312 24-07-2018 01:55:00 17.8 C 84 % 15.06 C
313 24-07-2018 02:00:00 17.8 C 84 % 15.06 C
314 24-07-2018 02:05:00 17.7 C 84 % 14.96 C
315 24-07-2018 02:10:00 17.6 C 84 % 14.87 C
316 24-07-2018 02:15:00 17.6 C 84 % 14.87 C
317 24-07-2018 02:20:00 17.5 C 85 % 14.95 C
318 24-07-2018 02:25:00 17.5 C 86 % 15.13 C
319 24-07-2018 02:30:00 17.5 C 85 % 14.95 C
320 24-07-2018 02:35:00 17.4 C 85 % 14.85 C
321 24-07-2018 02:40:00 17.4 C 85 % 14.85 C
322 24-07-2018 02:45:00 17.4 C 86 % 15.03 C
323 24-07-2018 02:50:00 17.3 C 85 % 14.76 C
324 24-07-2018 02:55:00 17.2 C 86 % 14.84 C
325 24-07-2018 03:00:00 17.2 C 87 % 15.02 C
Sensor: Nr:Datum:Temp:Feuchte:Taupunkt:
Aussen-T/F 326 24-07-2018 03:05:00 17.3 C 87 % 15.12 C
327 24-07-2018 03:10:00 17.2 C 87 % 15.02 C
328 24-07-2018 03:15:00 17.2 C 87 % 15.02 C
329 24-07-2018 03:20:00 17.1 C 86 % 14.74 C
330 24-07-2018 03:25:00 17 C 86 % 14.64 C
331 24-07-2018 03:30:00 16.9 C 86 % 14.54 C
332 24-07-2018 03:35:00 16.8 C 87 % 14.62 C
333 24-07-2018 03:40:00 16.7 C 87 % 14.53 C
334 24-07-2018 03:45:00 16.7 C 87 % 14.53 C
335 24-07-2018 03:50:00 16.6 C 87 % 14.43 C
336 24-07-2018 03:55:00 16.4 C 87 % 14.23 C
337 24-07-2018 04:00:00 16.4 C 88 % 14.41 C
338 24-07-2018 04:05:00 16.3 C 88 % 14.31 C
339 24-07-2018 04:10:00 16.3 C 88 % 14.31 C
340 24-07-2018 04:15:00 16.2 C 88 % 14.21 C
341 24-07-2018 04:20:00 16.2 C 89 % 14.39 C
342 24-07-2018 04:25:00 16.2 C 89 % 14.39 C
343 24-07-2018 04:30:00 16.2 C 89 % 14.39 C
344 24-07-2018 04:35:00 16.1 C 89 % 14.29 C
345 24-07-2018 04:40:00 16 C 89 % 14.19 C
346 24-07-2018 04:45:00 15.9 C 89 % 14.09 C
347 24-07-2018 04:50:00 15.9 C 90 % 14.26 C
348 24-07-2018 04:55:00 15.8 C 90 % 14.16 C
349 24-07-2018 05:00:00 15.8 C 90 % 14.16 C
350 24-07-2018 05:05:00 15.8 C 90 % 14.16 C
Sensor: Nr:Datum:Temp:Feuchte:Taupunkt:
Aussen-T/F 351 24-07-2018 05:10:00 15.7 C 90 % 14.06 C
352 24-07-2018 05:15:00 15.7 C 90 % 14.06 C
353 24-07-2018 05:20:00 15.6 C 90 % 13.97 C
354 24-07-2018 05:25:00 15.6 C 90 % 13.97 C
355 24-07-2018 05:30:00 15.6 C 91 % 14.14 C
356 24-07-2018 05:35:00 15.6 C 91 % 14.14 C
357 24-07-2018 05:40:00 15.6 C 91 % 14.14 C
358 24-07-2018 05:45:00 15.6 C 91 % 14.14 C
359 24-07-2018 05:50:00 15.5 C 91 % 14.04 C
360 24-07-2018 05:55:00 15.5 C 91 % 14.04 C
361 24-07-2018 06:00:00 15.5 C 91 % 14.04 C
362 24-07-2018 06:05:00 15.5 C 92 % 14.21 C
363 24-07-2018 06:10:00 15.6 C 92 % 14.31 C
364 24-07-2018 06:15:00 15.6 C 92 % 14.31 C
365 24-07-2018 06:20:00 15.5 C 92 % 14.21 C
366 24-07-2018 06:25:00 15.5 C 92 % 14.21 C
367 24-07-2018 06:30:00 15.5 C 92 % 14.21 C
368 24-07-2018 06:35:00 15.5 C 92 % 14.21 C
369 24-07-2018 06:40:00 15.5 C 92 % 14.21 C
370 24-07-2018 06:45:00 15.6 C 92 % 14.31 C
371 24-07-2018 06:50:00 15.6 C 92 % 14.31 C
372 24-07-2018 06:55:00 15.6 C 92 % 14.31 C
373 24-07-2018 07:00:00 15.6 C 92 % 14.31 C
374 24-07-2018 07:05:00 15.6 C 92 % 14.31 C
375 24-07-2018 07:10:00 15.6 C 92 % 14.31 C
Sensor: Nr:Datum:Temp:Feuchte:Taupunkt:
Aussen-T/F 376 24-07-2018 07:15:00 15.7 C 92 % 14.4 C
377 24-07-2018 07:20:00 15.8 C 93 % 14.67 C
378 24-07-2018 07:25:00 15.8 C 93 % 14.67 C
379 24-07-2018 07:30:00 15.8 C 93 % 14.67 C
380 24-07-2018 07:35:00 15.9 C 93 % 14.77 C
381 24-07-2018 07:40:00 16 C 93 % 14.87 C
382 24-07-2018 07:45:00 16.1 C 93 % 14.97 C
383 24-07-2018 07:50:00 16.1 C 93 % 14.97 C
384 24-07-2018 07:55:00 16.2 C 93 % 15.07 C
385 24-07-2018 08:00:00 16.3 C 93 % 15.17 C
386 24-07-2018 08:05:00 16.3 C 93 % 15.17 C
387 24-07-2018 08:10:00 16.4 C 92 % 15.1 C
388 24-07-2018 08:15:00 16.6 C 93 % 15.46 C
389 24-07-2018 08:20:00 16.6 C 93 % 15.46 C
390 24-07-2018 08:25:00 16.7 C 92 % 15.39 C
391 24-07-2018 08:30:00 16.8 C 92 % 15.49 C
392 24-07-2018 08:35:00 16.9 C 92 % 15.59 C
393 24-07-2018 08:40:00 17.1 C 92 % 15.79 C
394 24-07-2018 08:45:00 17.2 C 92 % 15.89 C
395 24-07-2018 08:50:00 17.3 C 92 % 15.99 C
396 24-07-2018 08:55:00 17.4 C 92 % 16.09 C
397 24-07-2018 09:00:00 17.6 C 92 % 16.28 C
398 24-07-2018 09:05:00 17.7 C 91 % 16.21 C
399 24-07-2018 09:10:00 17.8 C 91 % 16.31 C
400 24-07-2018 09:15:00 17.9 C 91 % 16.41 C
Sensor: Nr:Datum:Temp:Feuchte:Taupunkt:
Aussen-T/F 401 24-07-2018 09:20:00 18.2 C 90 % 16.53 C
402 24-07-2018 09:25:00 18.3 C 90 % 16.63 C
403 24-07-2018 09:30:00 18.6 C 90 % 16.93 C
404 24-07-2018 09:35:00 18.7 C 89 % 16.85 C
405 24-07-2018 09:40:00 18.9 C 89 % 17.05 C
406 24-07-2018 09:45:00 19.1 C 88 % 17.07 C
407 24-07-2018 09:50:00 19.3 C 88 % 17.26 C
408 24-07-2018 09:55:00 19.6 C 87 % 17.38 C
409 24-07-2018 10:00:00 19.7 C 87 % 17.47 C
410 24-07-2018 10:05:00 19.9 C 86 % 17.49 C
411 24-07-2018 10:10:00 20.1 C 84 % 17.31 C
412 24-07-2018 10:15:00 20.4 C 84 % 17.61 C
413 24-07-2018 10:20:00 20.7 C 83 % 17.71 C
414 24-07-2018 10:25:00 21.1 C 82 % 17.91 C
415 24-07-2018 10:30:00 21.3 C 81 % 17.91 C
416 24-07-2018 10:35:00 21.7 C 79 % 17.9 C
417 24-07-2018 10:40:00 22.3 C 75 % 17.65 C
418 24-07-2018 10:45:00 22.8 C 75 % 18.14 C
419 24-07-2018 10:50:00 23.1 C 75 % 18.43 C
420 24-07-2018 10:55:00 23.3 C 72 % 17.97 C
421 24-07-2018 11:00:00 23.5 C 71 % 17.94 C
422 24-07-2018 11:05:00 23.8 C 68 % 17.54 C
423 24-07-2018 11:10:00 24 C 66 % 17.26 C
424 24-07-2018 11:15:00 24.3 C 65 % 17.3 C
425 24-07-2018 11:20:00 24.7 C 61 % 16.67 C
Sensor: Nr:Datum:Temp:Feuchte:Taupunkt:
Aussen-T/F 426 24-07-2018 11:25:00 25.1 C 60 % 16.79 C
427 24-07-2018 11:30:00 25.4 C 57 % 16.26 C
428 24-07-2018 11:35:00 25.8 C 55 % 16.07 C
429 24-07-2018 11:40:00 26.2 C 55 % 16.45 C
430 24-07-2018 11:45:00 26.6 C 54 % 16.53 C
431 24-07-2018 11:50:00 26.8 C 54 % 16.71 C
432 24-07-2018 11:55:00 27.1 C 51 % 16.09 C
433 24-07-2018 12:00:00 27.3 C 50 % 15.97 C
434 24-07-2018 12:05:00 27.4 C 50 % 16.06 C
435 24-07-2018 12:10:00 27.6 C 50 % 16.24 C
436 24-07-2018 12:15:00 27.7 C 48 % 15.69 C
437 24-07-2018 12:20:00 27.8 C 48 % 15.78 C
438 24-07-2018 12:25:00 28 C 48 % 15.97 C
439 24-07-2018 12:30:00 28.2 C 48 % 16.15 C
440 24-07-2018 12:35:00 28.4 C 44 % 14.97 C
441 24-07-2018 12:40:00 28.6 C 43 % 14.8 C
442 24-07-2018 12:45:00 28.8 C 43 % 14.97 C
443 24-07-2018 12:50:00 28.8 C 43 % 14.97 C
444 24-07-2018 12:55:00 28.9 C 43 % 15.06 C
445 24-07-2018 13:00:00 29.2 C 44 % 15.69 C
446 24-07-2018 13:05:00 29.3 C 43 % 15.42 C
447 24-07-2018 13:10:00 29.2 C 43 % 15.33 C
448 24-07-2018 13:15:00 29.2 C 43 % 15.33 C
449 24-07-2018 13:20:00 29.2 C 44 % 15.69 C
450 24-07-2018 13:25:00 29.3 C 44 % 15.78 C
Sensor: Nr:Datum:Temp:Feuchte:Taupunkt:
Aussen-T/F 451 24-07-2018 13:30:00 29.3 C 42 % 15.06 C
452 24-07-2018 13:35:00 29.5 C 42 % 15.24 C
453 24-07-2018 13:40:00 29.7 C 44 % 16.14 C
454 24-07-2018 13:45:00 29.8 C 42 % 15.51 C
455 24-07-2018 13:50:00 29.9 C 42 % 15.6 C
456 24-07-2018 13:55:00 30 C 40 % 14.93 C
457 24-07-2018 14:00:00 30.2 C 40 % 15.1 C
458 24-07-2018 14:05:00 30.2 C 41 % 15.49 C
459 24-07-2018 14:10:00 30.3 C 40 % 15.19 C
460 24-07-2018 14:15:00 30.4 C 40 % 15.28 C
461 24-07-2018 14:20:00 30.7 C 41 % 15.93 C
462 24-07-2018 14:25:00 30.8 C 39 % 15.24 C
463 24-07-2018 14:30:00 30.9 C 39 % 15.33 C
464 24-07-2018 14:35:00 30.9 C 40 % 15.73 C
465 24-07-2018 14:40:00 31.1 C 39 % 15.51 C
466 24-07-2018 14:45:00 31.2 C 38 % 15.19 C
467 24-07-2018 14:50:00 31.2 C 37 % 14.78 C
468 24-07-2018 14:55:00 31.2 C 37 % 14.78 C
469 24-07-2018 15:00:00 31.3 C 37 % 14.87 C
470 24-07-2018 15:05:00 31.3 C 37 % 14.87 C
471 24-07-2018 15:10:00 31.6 C 38 % 15.55 C
472 24-07-2018 15:15:00 31.8 C 37 % 15.31 C
473 24-07-2018 15:20:00 31.8 C 37 % 15.31 C
474 24-07-2018 15:25:00 31.8 C 36 % 14.88 C
475 24-07-2018 15:30:00 31.9 C 37 % 15.4 C
Sensor: Nr:Datum:Temp:Feuchte:Taupunkt:
Aussen-T/F 476 24-07-2018 15:35:00 32.2 C 36 % 15.23 C
477 24-07-2018 15:40:00 32.4 C 36 % 15.41 C
478 24-07-2018 15:45:00 32.8 C 36 % 15.76 C
479 24-07-2018 15:50:00 32.9 C 34 % 14.96 C
480 24-07-2018 15:55:00 32.6 C 35 % 15.15 C
481 24-07-2018 16:00:00 32.3 C 36 % 15.32 C
482 24-07-2018 16:05:00 32.6 C 35 % 15.15 C
483 24-07-2018 16:10:00 32.8 C 35 % 15.32 C
484 24-07-2018 16:15:00 32.9 C 34 % 14.96 C
485 24-07-2018 16:20:00 32.6 C 35 % 15.15 C
486 24-07-2018 16:25:00 32.1 C 35 % 14.71 C
487 24-07-2018 16:30:00 31.8 C 37 % 15.31 C
488 24-07-2018 16:35:00 31.7 C 36 % 14.79 C
489 24-07-2018 16:40:00 31.6 C 36 % 14.71 C
490 24-07-2018 16:45:00 31.9 C 36 % 14.97 C
491 24-07-2018 16:50:00 32.5 C 35 % 15.06 C
492 24-07-2018 16:55:00 33.1 C 33 % 14.67 C
493 24-07-2018 17:00:00 33.4 C 32 % 14.45 C
494 24-07-2018 17:05:00 33.7 C 31 % 14.22 C
495 24-07-2018 17:10:00 34 C 32 % 14.97 C
496 24-07-2018 17:15:00 34.2 C 31 % 14.65 C
497 24-07-2018 17:20:00 34.3 C 33 % 15.71 C
498 24-07-2018 17:25:00 34.7 C 31 % 15.08 C
499 24-07-2018 17:30:00 34.8 C 30 % 14.66 C
500 24-07-2018 17:35:00 34.4 C 30 % 14.32 C
Sensor: Nr:Datum:Temp:Feuchte:Taupunkt:
Aussen-T/F 501 24-07-2018 17:40:00 33.8 C 31 % 14.31 C
502 24-07-2018 17:45:00 33.3 C 37 % 16.63 C
503 24-07-2018 17:50:00 32.9 C 39 % 17.11 C
504 24-07-2018 17:55:00 32.9 C 33 % 14.49 C
505 24-07-2018 18:00:00 33.4 C 33 % 14.93 C
506 24-07-2018 18:05:00 33.9 C 32 % 14.88 C
507 24-07-2018 18:10:00 34.3 C 30 % 14.23 C
508 24-07-2018 18:15:00 34.6 C 31 % 14.99 C
509 24-07-2018 18:20:00 34.9 C 31 % 15.25 C
510 24-07-2018 18:25:00 35.2 C 29 % 14.48 C
511 24-07-2018 18:30:00 35.3 C 28 % 14.02 C
512 24-07-2018 18:35:00 35.3 C 29 % 14.56 C
513 24-07-2018 18:40:00 35.2 C 28 % 13.93 C
514 24-07-2018 18:45:00 35.3 C 29 % 14.56 C
515 24-07-2018 18:50:00 35.1 C 29 % 14.39 C
516 24-07-2018 18:55:00 35.1 C 29 % 14.39 C
517 24-07-2018 19:00:00 35.1 C 29 % 14.39 C
518 24-07-2018 19:05:00 35.1 C 33 % 16.4 C
519 24-07-2018 19:10:00 34.9 C 29 % 14.22 C
520 24-07-2018 19:15:00 34.4 C 30 % 14.32 C
521 24-07-2018 19:20:00 34 C 33 % 15.45 C
522 24-07-2018 19:25:00 33.4 C 37 % 16.72 C
523 24-07-2018 19:30:00 32.7 C 37 % 16.1 C
524 24-07-2018 19:35:00 31.9 C 39 % 16.22 C
525 24-07-2018 19:40:00 31.1 C 39 % 15.51 C
Sensor: Nr:Datum:Temp:Feuchte:Taupunkt:
Aussen-T/F 526 24-07-2018 19:45:00 30.3 C 40 % 15.19 C
527 24-07-2018 19:50:00 29.8 C 41 % 15.13 C
528 24-07-2018 19:55:00 29.2 C 42 % 14.97 C
529 24-07-2018 20:00:00 28.8 C 43 % 14.97 C
530 24-07-2018 20:05:00 28.4 C 44 % 14.97 C
531 24-07-2018 20:10:00 28.2 C 43 % 14.44 C
532 24-07-2018 20:15:00 28 C 44 % 14.61 C
533 24-07-2018 20:20:00 27.9 C 44 % 14.52 C
534 24-07-2018 20:25:00 27.9 C 45 % 14.87 C
535 24-07-2018 20:30:00 27.9 C 44 % 14.52 C
536 24-07-2018 20:35:00 27.9 C 44 % 14.52 C
537 24-07-2018 20:40:00 27.9 C 44 % 14.52 C
538 24-07-2018 20:45:00 27.8 C 45 % 14.78 C
539 24-07-2018 20:50:00 27.7 C 45 % 14.69 C
540 24-07-2018 20:55:00 27.5 C 46 % 14.85 C
541 24-07-2018 21:00:00 27.2 C 47 % 14.91 C
542 24-07-2018 21:05:00 26.9 C 46 % 14.3 C
543 24-07-2018 21:10:00 26.7 C 47 % 14.45 C
544 24-07-2018 21:15:00 26.4 C 47 % 14.18 C
545 24-07-2018 21:20:00 26.2 C 48 % 14.32 C
546 24-07-2018 21:25:00 25.9 C 49 % 14.37 C
547 24-07-2018 21:30:00 25.8 C 51 % 14.9 C
548 24-07-2018 21:35:00 25.4 C 51 % 14.53 C
549 24-07-2018 21:40:00 25.1 C 51 % 14.25 C
550 24-07-2018 21:45:00 24.7 C 52 % 14.19 C
Sensor: Nr:Datum:Temp:Feuchte:Taupunkt:
Aussen-T/F 551 24-07-2018 21:50:00 24.4 C 52 % 13.91 C
552 24-07-2018 21:55:00 24.3 C 54 % 14.4 C
553 24-07-2018 22:00:00 24.1 C 54 % 14.21 C
554 24-07-2018 22:05:00 23.8 C 55 % 14.22 C
555 24-07-2018 22:10:00 23.6 C 56 % 14.31 C
556 24-07-2018 22:15:00 23.4 C 56 % 14.13 C
557 24-07-2018 22:20:00 23.1 C 55 % 13.57 C
558 24-07-2018 22:25:00 23 C 56 % 13.75 C
559 24-07-2018 22:30:00 22.9 C 57 % 13.93 C
560 24-07-2018 22:35:00 22.8 C 58 % 14.11 C
561 24-07-2018 22:40:00 22.7 C 55 % 13.2 C
562 24-07-2018 22:45:00 22.6 C 57 % 13.65 C
563 24-07-2018 22:50:00 22.4 C 59 % 14 C
564 24-07-2018 22:55:00 22.3 C 59 % 13.9 C
565 24-07-2018 23:00:00 22.1 C 60 % 13.98 C
566 24-07-2018 23:05:00 21.9 C 61 % 14.04 C
567 24-07-2018 23:10:00 21.7 C 61 % 13.85 C
568 24-07-2018 23:15:00 21.6 C 61 % 13.76 C
569 24-07-2018 23:20:00 21.5 C 62 % 13.92 C
570 24-07-2018 23:25:00 21.4 C 63 % 14.07 C
571 24-07-2018 23:30:00 21.2 C 62 % 13.63 C
572 24-07-2018 23:35:00 21.1 C 62 % 13.54 C
573 24-07-2018 23:40:00 21 C 63 % 13.69 C
574 24-07-2018 23:45:00 20.9 C 64 % 13.84 C
575 24-07-2018 23:50:00 20.8 C 64 % 13.74 C
Sensor: Nr:Datum:Temp:Feuchte:Taupunkt:
Aussen-T/F 576 24-07-2018 23:55:00 20.9 C 64 % 13.84 C
577 25-07-2018 00:00:00 20.9 C 65 % 14.08 C
578 25-07-2018 00:05:00 20.7 C 65 % 13.89 C
579 25-07-2018 00:10:00 20.5 C 66 % 13.93 C
580 25-07-2018 00:15:00 20.3 C 66 % 13.74 C
581 25-07-2018 00:20:00 20.2 C 68 % 14.11 C
582 25-07-2018 00:25:00 20.2 C 68 % 14.11 C
583 25-07-2018 00:30:00 20.1 C 68 % 14.01 C
584 25-07-2018 00:35:00 20 C 68 % 13.92 C
585 25-07-2018 00:40:00 19.9 C 69 % 14.05 C
586 25-07-2018 00:45:00 19.9 C 68 % 13.82 C
587 25-07-2018 00:50:00 19.9 C 70 % 14.27 C
588 25-07-2018 00:55:00 20 C 70 % 14.36 C
589 25-07-2018 01:00:00 19.9 C 70 % 14.27 C
590 25-07-2018 01:05:00 19.8 C 71 % 14.39 C
591 25-07-2018 01:10:00 19.7 C 72 % 14.51 C
592 25-07-2018 01:15:00 19.6 C 72 % 14.42 C
593 25-07-2018 01:20:00 19.4 C 71 % 14.01 C
594 25-07-2018 01:25:00 19.3 C 72 % 14.13 C
595 25-07-2018 01:30:00 19.3 C 72 % 14.13 C
596 25-07-2018 01:35:00 19.4 C 72 % 14.22 C
597 25-07-2018 01:40:00 19.6 C 72 % 14.42 C
598 25-07-2018 01:45:00 19.8 C 71 % 14.39 C
599 25-07-2018 01:50:00 19.9 C 71 % 14.49 C
600 25-07-2018 01:55:00 20 C 70 % 14.36 C
Sensor: Nr:Datum:Temp:Feuchte:Taupunkt:
Aussen-T/F 601 25-07-2018 02:00:00 20 C 71 % 14.58 C
602 25-07-2018 02:05:00 19.8 C 71 % 14.39 C
603 25-07-2018 02:10:00 19.6 C 72 % 14.42 C
604 25-07-2018 02:15:00 19.3 C 73 % 14.34 C
605 25-07-2018 02:20:00 19.2 C 73 % 14.25 C
606 25-07-2018 02:25:00 19 C 74 % 14.26 C
607 25-07-2018 02:30:00 18.8 C 74 % 14.07 C
608 25-07-2018 02:35:00 18.7 C 75 % 14.18 C
609 25-07-2018 02:40:00 18.6 C 75 % 14.08 C
610 25-07-2018 02:45:00 18.4 C 76 % 14.1 C
611 25-07-2018 02:50:00 18.3 C 76 % 14 C
612 25-07-2018 02:55:00 18.3 C 76 % 14 C
613 25-07-2018 03:00:00 18.2 C 77 % 14.1 C
614 25-07-2018 03:05:00 18.3 C 77 % 14.2 C
615 25-07-2018 03:10:00 18.3 C 77 % 14.2 C
616 25-07-2018 03:15:00 18.2 C 77 % 14.1 C
617 25-07-2018 03:20:00 18.1 C 77 % 14.01 C
618 25-07-2018 03:25:00 17.9 C 77 % 13.81 C
619 25-07-2018 03:30:00 17.8 C 78 % 13.91 C
620 25-07-2018 03:35:00 17.7 C 78 % 13.82 C
621 25-07-2018 03:40:00 17.7 C 78 % 13.82 C
622 25-07-2018 03:45:00 17.7 C 78 % 13.82 C
623 25-07-2018 03:50:00 17.6 C 78 % 13.72 C
624 25-07-2018 03:55:00 17.6 C 79 % 13.92 C
625 25-07-2018 04:00:00 17.6 C 79 % 13.92 C
Sensor: Nr:Datum:Temp:Feuchte:Taupunkt:
Aussen-T/F 626 25-07-2018 04:05:00 17.5 C 80 % 14.01 C
627 25-07-2018 04:10:00 17.5 C 80 % 14.01 C
628 25-07-2018 04:15:00 17.4 C 80 % 13.92 C
629 25-07-2018 04:20:00 17.4 C 80 % 13.92 C
630 25-07-2018 04:25:00 17.3 C 81 % 14.01 C
631 25-07-2018 04:30:00 17.3 C 81 % 14.01 C
632 25-07-2018 04:35:00 17.2 C 81 % 13.91 C
633 25-07-2018 04:40:00 17.2 C 81 % 13.91 C
634 25-07-2018 04:45:00 17.2 C 81 % 13.91 C
635 25-07-2018 04:50:00 17.2 C 81 % 13.91 C
636 25-07-2018 04:55:00 17.1 C 82 % 14 C
637 25-07-2018 05:00:00 17 C 82 % 13.91 C
638 25-07-2018 05:05:00 17 C 82 % 13.91 C
639 25-07-2018 05:10:00 16.9 C 82 % 13.81 C
640 25-07-2018 05:15:00 16.9 C 82 % 13.81 C
641 25-07-2018 05:20:00 16.8 C 82 % 13.71 C
642 25-07-2018 05:25:00 16.8 C 83 % 13.9 C
643 25-07-2018 05:30:00 16.7 C 83 % 13.8 C
644 25-07-2018 05:35:00 16.7 C 83 % 13.8 C
645 25-07-2018 05:40:00 16.6 C 83 % 13.7 C
646 25-07-2018 05:45:00 16.6 C 84 % 13.89 C
647 25-07-2018 05:50:00 16.5 C 84 % 13.79 C
648 25-07-2018 05:55:00 16.4 C 84 % 13.69 C
649 25-07-2018 06:00:00 16.4 C 84 % 13.69 C
650 25-07-2018 06:05:00 16.3 C 84 % 13.59 C
Sensor: Nr:Datum:Temp:Feuchte:Taupunkt:
Aussen-T/F 651 25-07-2018 06:10:00 16.3 C 84 % 13.59 C
652 25-07-2018 06:15:00 16.3 C 85 % 13.77 C
653 25-07-2018 06:20:00 16.3 C 85 % 13.77 C
654 25-07-2018 06:25:00 16.5 C 85 % 13.97 C
655 25-07-2018 06:30:00 16.6 C 85 % 14.07 C
656 25-07-2018 06:35:00 16.8 C 85 % 14.26 C
657 25-07-2018 06:40:00 16.9 C 84 % 14.18 C
658 25-07-2018 06:45:00 16.9 C 84 % 14.18 C
659 25-07-2018 06:50:00 17 C 84 % 14.28 C
660 25-07-2018 06:55:00 16.9 C 84 % 14.18 C
661 25-07-2018 07:00:00 16.9 C 84 % 14.18 C
662 25-07-2018 07:05:00 16.9 C 85 % 14.36 C
663 25-07-2018 07:10:00 16.9 C 85 % 14.36 C
664 25-07-2018 07:15:00 16.9 C 85 % 14.36 C
665 25-07-2018 07:20:00 16.9 C 86 % 14.54 C
666 25-07-2018 07:25:00 16.9 C 86 % 14.54 C
667 25-07-2018 07:30:00 17 C 86 % 14.64 C
668 25-07-2018 07:35:00 17.1 C 86 % 14.74 C
669 25-07-2018 07:40:00 17.1 C 86 % 14.74 C
670 25-07-2018 07:45:00 17.2 C 86 % 14.84 C
671 25-07-2018 07:50:00 17.2 C 86 % 14.84 C
672 25-07-2018 07:55:00 17.3 C 86 % 14.94 C
673 25-07-2018 08:00:00 17.3 C 86 % 14.94 C
674 25-07-2018 08:05:00 17.4 C 86 % 15.03 C
675 25-07-2018 08:10:00 17.6 C 86 % 15.23 C
Sensor: Nr:Datum:Temp:Feuchte:Taupunkt:
Aussen-T/F 676 25-07-2018 08:15:00 17.7 C 86 % 15.33 C
677 25-07-2018 08:20:00 17.8 C 86 % 15.43 C
678 25-07-2018 08:25:00 17.9 C 86 % 15.53 C
679 25-07-2018 08:30:00 18 C 86 % 15.62 C
680 25-07-2018 08:35:00 18.1 C 86 % 15.72 C
681 25-07-2018 08:40:00 18.2 C 86 % 15.82 C
682 25-07-2018 08:45:00 18.3 C 86 % 15.92 C
683 25-07-2018 08:50:00 18.5 C 86 % 16.11 C
684 25-07-2018 08:55:00 18.7 C 84 % 15.94 C
685 25-07-2018 09:00:00 18.8 C 84 % 16.04 C
686 25-07-2018 09:05:00 19 C 85 % 16.42 C
687 25-07-2018 09:10:00 19.2 C 83 % 16.24 C
688 25-07-2018 09:15:00 19.3 C 82 % 16.15 C
689 25-07-2018 09:20:00 19.5 C 81 % 16.15 C
690 25-07-2018 09:25:00 19.7 C 81 % 16.35 C
691 25-07-2018 09:30:00 20 C 81 % 16.64 C
692 25-07-2018 09:35:00 20.2 C 80 % 16.64 C
693 25-07-2018 09:40:00 20.3 C 80 % 16.74 C
694 25-07-2018 09:45:00 20.5 C 79 % 16.73 C
695 25-07-2018 09:50:00 20.7 C 78 % 16.73 C
696 25-07-2018 09:55:00 20.9 C 78 % 16.92 C
697 25-07-2018 10:00:00 21.1 C 77 % 16.91 C
698 25-07-2018 10:05:00 21.4 C 77 % 17.2 C
699 25-07-2018 10:10:00 21.6 C 76 % 17.19 C
700 25-07-2018 10:15:00 21.9 C 76 % 17.48 C
Sensor: Nr:Datum:Temp:Feuchte:Taupunkt:
Aussen-T/F 701 25-07-2018 10:20:00 22.2 C 74 % 17.34 C
702 25-07-2018 10:25:00 22.6 C 73 % 17.51 C
703 25-07-2018 10:30:00 22.9 C 73 % 17.8 C
704 25-07-2018 10:35:00 23.4 C 69 % 17.39 C
705 25-07-2018 10:40:00 24 C 66 % 17.26 C
706 25-07-2018 10:45:00 24.6 C 63 % 17.09 C
707 25-07-2018 10:50:00 24.9 C 61 % 16.86 C
708 25-07-2018 10:55:00 25.2 C 60 % 16.88 C
709 25-07-2018 11:00:00 25.4 C 61 % 17.33 C
710 25-07-2018 11:05:00 25.5 C 62 % 17.68 C
711 25-07-2018 11:10:00 25.7 C 61 % 17.61 C
712 25-07-2018 11:15:00 25.8 C 61 % 17.71 C
713 25-07-2018 11:20:00 25.9 C 59 % 17.27 C
714 25-07-2018 11:25:00 26.3 C 59 % 17.65 C
715 25-07-2018 11:30:00 26.6 C 57 % 17.38 C
716 25-07-2018 11:35:00 26.8 C 56 % 17.29 C
717 25-07-2018 11:40:00 27.1 C 55 % 17.28 C
718 25-07-2018 11:45:00 27.3 C 53 % 16.88 C
719 25-07-2018 11:50:00 27.7 C 52 % 16.95 C
720 25-07-2018 11:55:00 27.9 C 51 % 16.83 C
721 25-07-2018 12:00:00 28.1 C 50 % 16.7 C
722 25-07-2018 12:05:00 28.2 C 51 % 17.1 C
723 25-07-2018 12:10:00 28.4 C 49 % 16.65 C
724 25-07-2018 12:15:00 28.6 C 48 % 16.51 C
725 25-07-2018 12:20:00 28.8 C 47 % 16.36 C
Sensor: Nr:Datum:Temp:Feuchte:Taupunkt:
Aussen-T/F 726 25-07-2018 12:25:00 29 C 47 % 16.55 C
727 25-07-2018 12:30:00 29.3 C 45 % 16.13 C
728 25-07-2018 12:35:00 29.4 C 45 % 16.23 C
729 25-07-2018 12:40:00 29.7 C 43 % 15.78 C
730 25-07-2018 12:45:00 29.9 C 42 % 15.6 C
731 25-07-2018 12:50:00 30.1 C 40 % 15.01 C
732 25-07-2018 12:55:00 30.3 C 38 % 14.4 C
733 25-07-2018 13:00:00 30.6 C 37 % 14.25 C
734 25-07-2018 13:05:00 30.8 C 35 % 13.57 C
735 25-07-2018 13:10:00 30.9 C 35 % 13.66 C
736 25-07-2018 13:15:00 31.1 C 36 % 14.27 C
737 25-07-2018 13:20:00 31.3 C 35 % 14.01 C
738 25-07-2018 13:25:00 31.6 C 34 % 13.82 C
739 25-07-2018 13:30:00 31.8 C 32 % 13.07 C
740 25-07-2018 13:35:00 31.9 C 32 % 13.15 C
741 25-07-2018 13:40:00 31.9 C 33 % 13.63 C
742 25-07-2018 13:45:00 32 C 33 % 13.71 C
743 25-07-2018 13:50:00 32 C 33 % 13.71 C
744 25-07-2018 13:55:00 32.1 C 34 % 14.26 C
745 25-07-2018 14:00:00 32.3 C 32 % 13.5 C
746 25-07-2018 14:05:00 32.6 C 32 % 13.76 C
747 25-07-2018 14:10:00 32.7 C 31 % 13.36 C
748 25-07-2018 14:15:00 32.7 C 31 % 13.36 C
749 25-07-2018 14:20:00 32.7 C 32 % 13.85 C
750 25-07-2018 14:25:00 32.7 C 32 % 13.85 C
Sensor: Nr:Datum:Temp:Feuchte:Taupunkt:
Aussen-T/F 751 25-07-2018 14:30:00 32.6 C 32 % 13.76 C
752 25-07-2018 14:35:00 32.7 C 31 % 13.36 C
753 25-07-2018 14:40:00 32.9 C 33 % 14.49 C
754 25-07-2018 14:45:00 33 C 31 % 13.62 C
755 25-07-2018 14:50:00 33.2 C 32 % 14.28 C
756 25-07-2018 14:55:00 33.2 C 31 % 13.79 C
757 25-07-2018 15:00:00 33.3 C 32 % 14.37 C
758 25-07-2018 15:05:00 33.4 C 31 % 13.96 C
759 25-07-2018 15:10:00 33.7 C 31 % 14.22 C
760 25-07-2018 15:15:00 33.7 C 31 % 14.22 C
761 25-07-2018 15:20:00 33.5 C 32 % 14.54 C
762 25-07-2018 15:25:00 33.3 C 32 % 14.37 C
763 25-07-2018 15:30:00 33.2 C 32 % 14.28 C
764 25-07-2018 15:35:00 33.1 C 35 % 15.58 C
765 25-07-2018 15:40:00 32.9 C 34 % 14.96 C
766 25-07-2018 15:45:00 32.8 C 34 % 14.87 C
767 25-07-2018 15:50:00 32.8 C 33 % 14.41 C
768 25-07-2018 15:55:00 32.7 C 34 % 14.78 C
769 25-07-2018 16:00:00 32.7 C 38 % 16.52 C
770 25-07-2018 16:05:00 32.6 C 39 % 16.84 C
771 25-07-2018 16:10:00 32.6 C 37 % 16.01 C
772 25-07-2018 16:15:00 32.6 C 36 % 15.58 C
773 25-07-2018 16:20:00 32.6 C 37 % 16.01 C
774 25-07-2018 16:25:00 32.8 C 35 % 15.32 C
775 25-07-2018 16:30:00 33.1 C 35 % 15.58 C
Sensor: Nr:Datum:Temp:Feuchte:Taupunkt:
Aussen-T/F 776 25-07-2018 16:35:00 33.9 C 31 % 14.39 C
777 25-07-2018 16:40:00 34.9 C 30 % 14.74 C
778 25-07-2018 16:45:00 35.4 C 28 % 14.1 C
779 25-07-2018 16:50:00 35.4 C 28 % 14.1 C
780 25-07-2018 16:55:00 35.3 C 28 % 14.02 C
781 25-07-2018 17:00:00 35.3 C 26 % 12.88 C
782 25-07-2018 17:05:00 35.6 C 27 % 13.71 C
783 25-07-2018 17:10:00 36 C 27 % 14.05 C
784 25-07-2018 17:15:00 36.4 C 26 % 13.81 C
785 25-07-2018 17:20:00 36.6 C 26 % 13.98 C
786 25-07-2018 17:25:00 36.3 C 25 % 13.12 C
787 25-07-2018 17:30:00 36 C 25 % 12.87 C
788 25-07-2018 17:35:00 36 C 26 % 13.47 C
789 25-07-2018 17:40:00 36.3 C 25 % 13.12 C
790 25-07-2018 17:45:00 36.5 C 25 % 13.29 C
791 25-07-2018 17:50:00 36.7 C 25 % 13.46 C
792 25-07-2018 17:55:00 36.4 C 25 % 13.21 C
793 25-07-2018 18:00:00 36.3 C 24 % 12.5 C
794 25-07-2018 18:05:00 36.5 C 25 % 13.29 C
795 25-07-2018 18:10:00 36.6 C 25 % 13.37 C
796 25-07-2018 18:15:00 36.6 C 26 % 13.98 C
797 25-07-2018 18:20:00 36.5 C 27 % 14.47 C
798 25-07-2018 18:25:00 36.4 C 27 % 14.39 C
799 25-07-2018 18:30:00 36.4 C 28 % 14.95 C
800 25-07-2018 18:35:00 36.2 C 28 % 14.78 C
Sensor: Nr:Datum:Temp:Feuchte:Taupunkt:
Aussen-T/F 801 25-07-2018 18:40:00 35.8 C 29 % 14.99 C
802 25-07-2018 18:45:00 35.5 C 29 % 14.73 C
803 25-07-2018 18:50:00 35.3 C 31 % 15.6 C
804 25-07-2018 18:55:00 35.1 C 30 % 14.92 C
805 25-07-2018 19:00:00 34.8 C 30 % 14.66 C
806 25-07-2018 19:05:00 34.7 C 31 % 15.08 C
807 25-07-2018 19:10:00 34.6 C 31 % 14.99 C
808 25-07-2018 19:15:00 34.4 C 32 % 15.32 C
809 25-07-2018 19:20:00 34.3 C 32 % 15.23 C
810 25-07-2018 19:25:00 34.1 C 31 % 14.56 C
811 25-07-2018 19:30:00 33.9 C 32 % 14.88 C
812 25-07-2018 19:35:00 33.8 C 32 % 14.8 C
813 25-07-2018 19:40:00 33.7 C 32 % 14.71 C
814 25-07-2018 19:45:00 33.6 C 32 % 14.62 C
815 25-07-2018 19:50:00 33.5 C 32 % 14.54 C
816 25-07-2018 19:55:00 33.4 C 33 % 14.93 C
817 25-07-2018 20:00:00 33.3 C 33 % 14.84 C
818 25-07-2018 20:05:00 33.2 C 33 % 14.75 C
819 25-07-2018 20:10:00 33.1 C 34 % 15.13 C
820 25-07-2018 20:15:00 33 C 34 % 15.04 C
821 25-07-2018 20:20:00 32.8 C 34 % 14.87 C
822 25-07-2018 20:25:00 32.7 C 35 % 15.23 C
823 25-07-2018 20:30:00 32.7 C 35 % 15.23 C
824 25-07-2018 20:35:00 32.3 C 38 % 16.17 C
825 25-07-2018 20:40:00 31.9 C 38 % 15.81 C
Sensor: Nr:Datum:Temp:Feuchte:Taupunkt:
Aussen-T/F 826 25-07-2018 20:45:00 31.7 C 39 % 16.04 C
827 25-07-2018 20:50:00 31.5 C 39 % 15.86 C
828 25-07-2018 20:55:00 31.3 C 41 % 16.47 C
829 25-07-2018 21:00:00 30.9 C 42 % 16.49 C
830 25-07-2018 21:05:00 30.5 C 43 % 16.5 C
831 25-07-2018 21:10:00 30.1 C 45 % 16.86 C
832 25-07-2018 21:15:00 29.6 C 46 % 16.75 C
833 25-07-2018 21:20:00 29.3 C 46 % 16.48 C
834 25-07-2018 21:25:00 28.9 C 47 % 16.45 C
835 25-07-2018 21:30:00 28.7 C 48 % 16.6 C
836 25-07-2018 21:35:00 28.4 C 48 % 16.33 C
837 25-07-2018 21:40:00 28.2 C 48 % 16.15 C
838 25-07-2018 21:45:00 28.1 C 48 % 16.06 C
839 25-07-2018 21:50:00 27.9 C 49 % 16.2 C
840 25-07-2018 21:55:00 27.8 C 49 % 16.11 C
841 25-07-2018 22:00:00 27.7 C 50 % 16.33 C
842 25-07-2018 22:05:00 27.6 C 51 % 16.55 C
843 25-07-2018 22:10:00 27.4 C 51 % 16.37 C
844 25-07-2018 22:15:00 27.3 C 52 % 16.58 C
845 25-07-2018 22:20:00 27.2 C 53 % 16.79 C
846 25-07-2018 22:25:00 27 C 53 % 16.6 C
847 25-07-2018 22:30:00 26.8 C 53 % 16.42 C
848 25-07-2018 22:35:00 26.7 C 53 % 16.33 C
849 25-07-2018 22:40:00 26.6 C 56 % 17.1 C
850 25-07-2018 22:45:00 26.4 C 55 % 16.63 C
Sensor: Nr:Datum:Temp:Feuchte:Taupunkt:
Aussen-T/F 851 25-07-2018 22:50:00 26.3 C 56 % 16.82 C
852 25-07-2018 22:55:00 26.2 C 58 % 17.28 C
853 25-07-2018 23:00:00 26 C 58 % 17.1 C
854 25-07-2018 23:05:00 25.8 C 57 % 16.64 C
855 25-07-2018 23:10:00 25.7 C 58 % 16.82 C
856 25-07-2018 23:15:00 25.6 C 58 % 16.72 C
857 25-07-2018 23:20:00 25.4 C 58 % 16.54 C
858 25-07-2018 23:25:00 25.3 C 60 % 16.98 C
859 25-07-2018 23:30:00 25.1 C 60 % 16.79 C
860 25-07-2018 23:35:00 25 C 62 % 17.21 C
861 25-07-2018 23:40:00 24.9 C 59 % 16.34 C
862 25-07-2018 23:45:00 24.7 C 60 % 16.41 C
863 25-07-2018 23:50:00 24.6 C 61 % 16.58 C
864 25-07-2018 23:55:00 24.4 C 60 % 16.13 C
865 26-07-2018 00:00:00 24.2 C 61 % 16.2 C
866 26-07-2018 00:05:00 23.9 C 64 % 16.68 C
867 26-07-2018 00:10:00 23.8 C 66 % 17.07 C
868 26-07-2018 00:15:00 23.7 C 67 % 17.21 C
869 26-07-2018 00:20:00 23.4 C 67 % 16.92 C
870 26-07-2018 00:25:00 23.2 C 67 % 16.73 C
871 26-07-2018 00:30:00 23.1 C 66 % 16.4 C
872 26-07-2018 00:35:00 22.9 C 66 % 16.21 C
873 26-07-2018 00:40:00 22.9 C 66 % 16.21 C
874 26-07-2018 00:45:00 22.8 C 66 % 16.12 C
875 26-07-2018 00:50:00 22.8 C 66 % 16.12 C
Sensor: Nr:Datum:Temp:Feuchte:Taupunkt:
Aussen-T/F 876 26-07-2018 00:55:00 22.8 C 66 % 16.12 C
877 26-07-2018 01:00:00 22.7 C 66 % 16.02 C
878 26-07-2018 01:05:00 22.7 C 67 % 16.26 C
879 26-07-2018 01:10:00 22.6 C 66 % 15.93 C
880 26-07-2018 01:15:00 22.6 C 67 % 16.16 C
881 26-07-2018 01:20:00 22.5 C 67 % 16.07 C
882 26-07-2018 01:25:00 22.4 C 67 % 15.97 C
883 26-07-2018 01:30:00 22.4 C 68 % 16.2 C
884 26-07-2018 01:35:00 22.3 C 68 % 16.11 C
885 26-07-2018 01:40:00 22.3 C 68 % 16.11 C
886 26-07-2018 01:45:00 22.3 C 69 % 16.34 C
887 26-07-2018 01:50:00 22.3 C 70 % 16.56 C
888 26-07-2018 01:55:00 22.2 C 68 % 16.01 C
889 26-07-2018 02:00:00 22.2 C 69 % 16.24 C
890 26-07-2018 02:05:00 22.2 C 70 % 16.47 C
891 26-07-2018 02:10:00 22.2 C 70 % 16.47 C
892 26-07-2018 02:15:00 22 C 71 % 16.5 C
893 26-07-2018 02:20:00 21.8 C 71 % 16.31 C
894 26-07-2018 02:25:00 21.7 C 71 % 16.21 C
895 26-07-2018 02:30:00 21.6 C 73 % 16.55 C
896 26-07-2018 02:35:00 21.5 C 74 % 16.67 C
897 26-07-2018 02:40:00 21.4 C 76 % 16.99 C
898 26-07-2018 02:45:00 21.5 C 79 % 17.7 C
899 26-07-2018 02:50:00 21.4 C 77 % 17.2 C
900 26-07-2018 02:55:00 21.4 C 76 % 16.99 C
Sensor: Nr:Datum:Temp:Feuchte:Taupunkt:
Aussen-T/F 901 26-07-2018 03:00:00 21.4 C 77 % 17.2 C
902 26-07-2018 03:05:00 21.4 C 77 % 17.2 C
903 26-07-2018 03:10:00 21.6 C 80 % 18 C
904 26-07-2018 03:15:00 21.5 C 79 % 17.7 C
905 26-07-2018 03:20:00 21.4 C 78 % 17.4 C
906 26-07-2018 03:25:00 21.3 C 76 % 16.9 C
907 26-07-2018 03:30:00 21.2 C 76 % 16.8 C
908 26-07-2018 03:35:00 21 C 76 % 16.61 C
909 26-07-2018 03:40:00 20.8 C 76 % 16.41 C
910 26-07-2018 03:45:00 20.7 C 77 % 16.52 C
911 26-07-2018 03:50:00 20.6 C 78 % 16.63 C
912 26-07-2018 03:55:00 20.5 C 78 % 16.53 C
913 26-07-2018 04:00:00 20.4 C 79 % 16.64 C
914 26-07-2018 04:05:00 20.3 C 79 % 16.54 C
915 26-07-2018 04:10:00 20.2 C 80 % 16.64 C
916 26-07-2018 04:15:00 20.1 C 80 % 16.54 C
917 26-07-2018 04:20:00 20 C 79 % 16.25 C
918 26-07-2018 04:25:00 19.8 C 79 % 16.05 C
919 26-07-2018 04:30:00 19.7 C 80 % 16.15 C
920 26-07-2018 04:35:00 19.7 C 80 % 16.15 C
921 26-07-2018 04:40:00 19.7 C 80 % 16.15 C
922 26-07-2018 04:45:00 19.6 C 80 % 16.06 C
923 26-07-2018 04:50:00 19.6 C 80 % 16.06 C
924 26-07-2018 04:55:00 19.5 C 80 % 15.96 C
925 26-07-2018 05:00:00 19.4 C 80 % 15.86 C
Sensor: Nr:Datum:Temp:Feuchte:Taupunkt:
Aussen-T/F 926 26-07-2018 05:05:00 19.3 C 80 % 15.76 C
927 26-07-2018 05:10:00 19.2 C 80 % 15.67 C
928 26-07-2018 05:15:00 19.3 C 82 % 16.15 C
929 26-07-2018 05:20:00 19.3 C 81 % 15.96 C
930 26-07-2018 05:25:00 19.3 C 81 % 15.96 C
931 26-07-2018 05:30:00 19.2 C 81 % 15.86 C
932 26-07-2018 05:35:00 19.1 C 81 % 15.76 C
933 26-07-2018 05:40:00 19.1 C 82 % 15.96 C
934 26-07-2018 05:45:00 19 C 82 % 15.86 C
935 26-07-2018 05:50:00 18.9 C 83 % 15.95 C
936 26-07-2018 05:55:00 18.9 C 83 % 15.95 C
937 26-07-2018 06:00:00 19 C 84 % 16.24 C
938 26-07-2018 06:05:00 19 C 85 % 16.42 C
939 26-07-2018 06:10:00 19.1 C 85 % 16.52 C
940 26-07-2018 06:15:00 19.1 C 86 % 16.7 C
941 26-07-2018 06:20:00 19.2 C 86 % 16.8 C
942 26-07-2018 06:25:00 19.2 C 85 % 16.62 C
943 26-07-2018 06:30:00 19.2 C 85 % 16.62 C
944 26-07-2018 06:35:00 19.3 C 86 % 16.9 C
945 26-07-2018 06:40:00 19.4 C 86 % 17 C
946 26-07-2018 06:45:00 19.6 C 86 % 17.19 C
947 26-07-2018 06:50:00 19.7 C 85 % 17.11 C
948 26-07-2018 06:55:00 19.8 C 85 % 17.21 C
949 26-07-2018 07:00:00 19.9 C 85 % 17.3 C
950 26-07-2018 07:05:00 20 C 85 % 17.4 C
Sensor: Nr:Datum:Temp:Feuchte:Taupunkt:
Aussen-T/F 951 26-07-2018 07:10:00 20.2 C 84 % 17.41 C
952 26-07-2018 07:15:00 20.3 C 84 % 17.51 C
953 26-07-2018 07:20:00 20.5 C 83 % 17.51 C
954 26-07-2018 07:25:00 20.7 C 83 % 17.71 C
955 26-07-2018 07:30:00 20.8 C 81 % 17.42 C
956 26-07-2018 07:35:00 20.9 C 81 % 17.52 C
957 26-07-2018 07:40:00 21.1 C 80 % 17.51 C
958 26-07-2018 07:45:00 21.2 C 82 % 18 C
959 26-07-2018 07:50:00 21.2 C 82 % 18 C
960 26-07-2018 07:55:00 21.2 C 82 % 18 C
961 26-07-2018 08:00:00 21.2 C 82 % 18 C
962 26-07-2018 08:05:00 21.2 C 82 % 18 C
963 26-07-2018 08:10:00 21.2 C 82 % 18 C
964 26-07-2018 08:15:00 21.2 C 82 % 18 C
965 26-07-2018 08:20:00 21.1 C 82 % 17.91 C
966 26-07-2018 08:25:00 21.1 C 82 % 17.91 C
967 26-07-2018 08:30:00 21.1 C 82 % 17.91 C
968 26-07-2018 08:35:00 21.2 C 82 % 18 C
969 26-07-2018 08:40:00 21.2 C 81 % 17.81 C
970 26-07-2018 08:45:00 21.3 C 81 % 17.91 C
971 26-07-2018 08:50:00 21.4 C 80 % 17.81 C
972 26-07-2018 08:55:00 21.7 C 79 % 17.9 C
973 26-07-2018 09:00:00 21.8 C 80 % 18.2 C
974 26-07-2018 09:05:00 21.9 C 79 % 18.09 C
975 26-07-2018 09:10:00 22.1 C 78 % 18.08 C
Sensor: Nr:Datum:Temp:Feuchte:Taupunkt:
Aussen-T/F 976 26-07-2018 09:15:00 22.3 C 77 % 18.07 C
977 26-07-2018 09:20:00 22.6 C 76 % 18.15 C
978 26-07-2018 09:25:00 22.8 C 75 % 18.14 C
979 26-07-2018 09:30:00 22.9 C 75 % 18.23 C
980 26-07-2018 09:35:00 23.1 C 75 % 18.43 C
981 26-07-2018 09:40:00 23.2 C 75 % 18.52 C
982 26-07-2018 09:45:00 23.3 C 74 % 18.4 C
983 26-07-2018 09:50:00 23.4 C 73 % 18.28 C
984 26-07-2018 09:55:00 23.6 C 73 % 18.48 C
985 26-07-2018 10:00:00 23.7 C 70 % 17.9 C
986 26-07-2018 10:05:00 23.9 C 72 % 18.54 C
987 26-07-2018 10:10:00 24.1 C 71 % 18.51 C
988 26-07-2018 10:15:00 24.3 C 70 % 18.48 C
989 26-07-2018 10:20:00 24.5 C 66 % 17.73 C
990 26-07-2018 10:25:00 24.9 C 68 % 18.59 C
991 26-07-2018 10:30:00 25.3 C 65 % 18.25 C
992 26-07-2018 10:35:00 25.8 C 62 % 17.97 C
993 26-07-2018 10:40:00 26.6 C 58 % 17.66 C
994 26-07-2018 10:45:00 27.3 C 57 % 18.03 C
995 26-07-2018 10:50:00 27.9 C 55 % 18.02 C
996 26-07-2018 10:55:00 28.4 C 56 % 18.77 C
997 26-07-2018 11:00:00 28.7 C 53 % 18.17 C
998 26-07-2018 11:05:00 28.9 C 52 % 18.05 C
999 26-07-2018 11:10:00 29.1 C 50 % 17.61 C
1000 26-07-2018 11:15:00 29.3 C 49 % 17.48 C
Sensor: Nr:Datum:Temp:Feuchte:Taupunkt:
Aussen-T/F 1001 26-07-2018 11:20:00 29.6 C 48 % 17.42 C
1002 26-07-2018 11:25:00 29.9 C 48 % 17.7 C
1003 26-07-2018 11:30:00 30.3 C 47 % 17.73 C
1004 26-07-2018 11:35:00 30.6 C 46 % 17.66 C
1005 26-07-2018 11:40:00 30.7 C 45 % 17.4 C
1006 26-07-2018 11:45:00 30.8 C 44 % 17.13 C
1007 26-07-2018 11:50:00 31.1 C 44 % 17.4 C
1008 26-07-2018 11:55:00 31.2 C 42 % 16.76 C
1009 26-07-2018 12:00:00 31.3 C 42 % 16.85 C
1010 26-07-2018 12:05:00 31.4 C 42 % 16.94 C
1011 26-07-2018 12:10:00 31.5 C 41 % 16.65 C
1012 26-07-2018 12:15:00 31.6 C 41 % 16.74 C
1013 26-07-2018 12:20:00 31.7 C 41 % 16.83 C
1014 26-07-2018 12:25:00 31.8 C 40 % 16.53 C
1015 26-07-2018 12:30:00 31.8 C 40 % 16.53 C
1016 26-07-2018 12:35:00 31.9 C 40 % 16.62 C
1017 26-07-2018 12:40:00 32 C 39 % 16.31 C
1018 26-07-2018 12:45:00 32.2 C 38 % 16.08 C
1019 26-07-2018 12:50:00 32.2 C 38 % 16.08 C
1020 26-07-2018 12:55:00 32.3 C 38 % 16.17 C
1021 26-07-2018 13:00:00 32.4 C 36 % 15.41 C
1022 26-07-2018 13:05:00 32.6 C 35 % 15.15 C
1023 26-07-2018 13:10:00 32.7 C 35 % 15.23 C
1024 26-07-2018 13:15:00 32.8 C 34 % 14.87 C
1025 26-07-2018 13:20:00 32.9 C 34 % 14.96 C
Sensor: Nr:Datum:Temp:Feuchte:Taupunkt:
Aussen-T/F 1026 26-07-2018 13:25:00 33.1 C 34 % 15.13 C
1027 26-07-2018 13:30:00 33.2 C 33 % 14.75 C
1028 26-07-2018 13:35:00 33.2 C 33 % 14.75 C
1029 26-07-2018 13:40:00 33.3 C 32 % 14.37 C
1030 26-07-2018 13:45:00 33.3 C 32 % 14.37 C
1031 26-07-2018 13:50:00 33.3 C 31 % 13.88 C
1032 26-07-2018 13:55:00 33.3 C 31 % 13.88 C
1033 26-07-2018 14:00:00 33.2 C 31 % 13.79 C
1034 26-07-2018 14:05:00 33.1 C 32 % 14.19 C
1035 26-07-2018 14:10:00 33.1 C 32 % 14.19 C
1036 26-07-2018 14:15:00 33.2 C 34 % 15.22 C
1037 26-07-2018 14:20:00 33.4 C 32 % 14.45 C
1038 26-07-2018 14:25:00 33.4 C 32 % 14.45 C
1039 26-07-2018 14:30:00 33.6 C 32 % 14.62 C
1040 26-07-2018 14:35:00 33.7 C 31 % 14.22 C
1041 26-07-2018 14:40:00 33.9 C 31 % 14.39 C
1042 26-07-2018 14:45:00 34.1 C 30 % 14.06 C
1043 26-07-2018 14:50:00 34.2 C 30 % 14.14 C
1044 26-07-2018 14:55:00 34.2 C 31 % 14.65 C
1045 26-07-2018 15:00:00 34.2 C 31 % 14.65 C
1046 26-07-2018 15:05:00 34.4 C 30 % 14.32 C
1047 26-07-2018 15:10:00 34.6 C 30 % 14.49 C
1048 26-07-2018 15:15:00 34.8 C 29 % 14.13 C
1049 26-07-2018 15:20:00 34.9 C 29 % 14.22 C
1050 26-07-2018 15:25:00 34.9 C 29 % 14.22 C
Sensor: Nr:Datum:Temp:Feuchte:Taupunkt:
Aussen-T/F 1051 26-07-2018 15:30:00 35.3 C 28 % 14.02 C
1052 26-07-2018 15:35:00 35.3 C 29 % 14.56 C
1053 26-07-2018 15:40:00 35.8 C 27 % 13.88 C
1054 26-07-2018 15:45:00 36.2 C 27 % 14.22 C
1055 26-07-2018 15:50:00 36.3 C 27 % 14.31 C
1056 26-07-2018 15:55:00 36.4 C 25 % 13.21 C
1057 26-07-2018 16:00:00 36.1 C 26 % 13.56 C
1058 26-07-2018 16:05:00 35.4 C 27 % 13.54 C
1059 26-07-2018 16:10:00 35 C 31 % 15.34 C
1060 26-07-2018 16:15:00 34.9 C 30 % 14.74 C
1061 26-07-2018 16:20:00 35.7 C 29 % 14.9 C
1062 26-07-2018 16:25:00 36.3 C 26 % 13.72 C
1063 26-07-2018 16:30:00 36.7 C 27 % 14.64 C
1064 26-07-2018 16:35:00 36.9 C 26 % 14.23 C
1065 26-07-2018 16:40:00 37.2 C 25 % 13.88 C
1066 26-07-2018 16:45:00 37.6 C 25 % 14.21 C
1067 26-07-2018 16:50:00 38 C 23 % 13.26 C
1068 26-07-2018 16:55:00 38.2 C 22 % 12.75 C
1069 26-07-2018 17:00:00 38.2 C 22 % 12.75 C
1070 26-07-2018 17:05:00 37.6 C 22 % 12.25 C
1071 26-07-2018 17:10:00 37.3 C 22 % 12.01 C
1072 26-07-2018 17:15:00 37.2 C 22 % 11.92 C
1073 26-07-2018 17:20:00 37 C 24 % 13.08 C
1074 26-07-2018 17:25:00 36.9 C 23 % 12.35 C
1075 26-07-2018 17:30:00 37 C 22 % 11.76 C
Sensor: Nr:Datum:Temp:Feuchte:Taupunkt:
Aussen-T/F 1076 26-07-2018 17:35:00 37.3 C 23 % 12.68 C
1077 26-07-2018 17:40:00 37.3 C 22 % 12.01 C
1078 26-07-2018 17:45:00 37.2 C 22 % 11.92 C
1079 26-07-2018 17:50:00 37.1 C 23 % 12.52 C
1080 26-07-2018 17:55:00 36.9 C 22 % 11.68 C
1081 26-07-2018 18:00:00 36.8 C 24 % 12.92 C
1082 26-07-2018 18:05:00 36.9 C 23 % 12.35 C
1083 26-07-2018 18:10:00 36.9 C 23 % 12.35 C
1084 26-07-2018 18:15:00 37 C 22 % 11.76 C
1085 26-07-2018 18:20:00 37.2 C 23 % 12.6 C
1086 26-07-2018 18:25:00 37.3 C 22 % 12.01 C
1087 26-07-2018 18:30:00 37.1 C 23 % 12.52 C
1088 26-07-2018 18:35:00 36.9 C 24 % 13 C
1089 26-07-2018 18:40:00 36.6 C 24 % 12.75 C
1090 26-07-2018 18:45:00 36.3 C 25 % 13.12 C
1091 26-07-2018 18:50:00 36.2 C 25 % 13.04 C
1092 26-07-2018 18:55:00 36 C 26 % 13.47 C
1093 26-07-2018 19:00:00 35.9 C 26 % 13.39 C
1094 26-07-2018 19:05:00 35.6 C 27 % 13.71 C
1095 26-07-2018 19:10:00 35.3 C 27 % 13.46 C
1096 26-07-2018 19:15:00 35.1 C 27 % 13.29 C
1097 26-07-2018 19:20:00 34.9 C 30 % 14.74 C
1098 26-07-2018 19:25:00 34.8 C 28 % 13.59 C
1099 26-07-2018 19:30:00 34.6 C 28 % 13.42 C
1100 26-07-2018 19:35:00 34.3 C 33 % 15.71 C
Sensor: Nr:Datum:Temp:Feuchte:Taupunkt:
Aussen-T/F 1101 26-07-2018 19:40:00 33.8 C 34 % 15.74 C
1102 26-07-2018 19:45:00 33.3 C 35 % 15.76 C
1103 26-07-2018 19:50:00 32.8 C 35 % 15.32 C
1104 26-07-2018 19:55:00 32.1 C 37 % 15.57 C
1105 26-07-2018 20:00:00 31.3 C 38 % 15.28 C
1106 26-07-2018 20:05:00 30.7 C 38 % 14.75 C
1107 26-07-2018 20:10:00 30.2 C 39 % 14.71 C
1108 26-07-2018 20:15:00 29.8 C 40 % 14.75 C
1109 26-07-2018 20:20:00 29.4 C 41 % 14.77 C
1110 26-07-2018 20:25:00 29.2 C 41 % 14.59 C
1111 26-07-2018 20:30:00 28.9 C 41 % 14.33 C
1112 26-07-2018 20:35:00 28.7 C 42 % 14.52 C
1113 26-07-2018 20:40:00 28.6 C 43 % 14.8 C
1114 26-07-2018 20:45:00 28.3 C 43 % 14.53 C
1115 26-07-2018 20:50:00 28.2 C 44 % 14.79 C
1116 26-07-2018 20:55:00 28 C 44 % 14.61 C
1117 26-07-2018 21:00:00 27.8 C 44 % 14.43 C
1118 26-07-2018 21:05:00 27.7 C 45 % 14.69 C
1119 26-07-2018 21:10:00 27.5 C 44 % 14.16 C
1120 26-07-2018 21:15:00 27.4 C 44 % 14.07 C
1121 26-07-2018 21:20:00 27.3 C 45 % 14.33 C
1122 26-07-2018 21:25:00 27.1 C 44 % 13.8 C
1123 26-07-2018 21:30:00 26.9 C 45 % 13.96 C
1124 26-07-2018 21:35:00 26.8 C 46 % 14.21 C
1125 26-07-2018 21:40:00 26.7 C 46 % 14.12 C
Sensor: Nr:Datum:Temp:Feuchte:Taupunkt:
Aussen-T/F 1126 26-07-2018 21:45:00 26.6 C 46 % 14.03 C
1127 26-07-2018 21:50:00 26.4 C 46 % 13.85 C
1128 26-07-2018 21:55:00 26.4 C 47 % 14.18 C
1129 26-07-2018 22:00:00 26.3 C 46 % 13.76 C
1130 26-07-2018 22:05:00 26.2 C 47 % 14 C
1131 26-07-2018 22:10:00 26.1 C 46 % 13.58 C
1132 26-07-2018 22:15:00 26 C 46 % 13.49 C
1133 26-07-2018 22:20:00 25.9 C 46 % 13.4 C
1134 26-07-2018 22:25:00 25.9 C 47 % 13.73 C
1135 26-07-2018 22:30:00 25.8 C 47 % 13.64 C
1136 26-07-2018 22:35:00 25.7 C 46 % 13.22 C
1137 26-07-2018 22:40:00 25.7 C 47 % 13.55 C
1138 26-07-2018 22:45:00 25.7 C 46 % 13.22 C
1139 26-07-2018 22:50:00 25.6 C 49 % 14.1 C
1140 26-07-2018 22:55:00 25.4 C 48 % 13.6 C
1141 26-07-2018 23:00:00 25.3 C 48 % 13.5 C
1142 26-07-2018 23:05:00 25.2 C 48 % 13.41 C
1143 26-07-2018 23:10:00 25.1 C 49 % 13.64 C
1144 26-07-2018 23:15:00 24.9 C 50 % 13.77 C
1145 26-07-2018 23:20:00 24.8 C 50 % 13.67 C
1146 26-07-2018 23:25:00 24.6 C 50 % 13.49 C
1147 26-07-2018 23:30:00 24.5 C 51 % 13.7 C
1148 26-07-2018 23:35:00 24.4 C 51 % 13.61 C
1149 26-07-2018 23:40:00 24.3 C 52 % 13.82 C
1150 26-07-2018 23:45:00 24.1 C 52 % 13.63 C
Sensor: Nr:Datum:Temp:Feuchte:Taupunkt:
Aussen-T/F 1151 26-07-2018 23:50:00 24 C 54 % 14.12 C
1152 26-07-2018 23:55:00 23.9 C 54 % 14.03 C
1153 27-07-2018 00:00:00 23.7 C 54 % 13.84 C
1154 27-07-2018 00:05:00 23.5 C 54 % 13.66 C
1155 27-07-2018 00:10:00 23.3 C 55 % 13.76 C
1156 27-07-2018 00:15:00 23.3 C 55 % 13.76 C
1157 27-07-2018 00:20:00 23.2 C 53 % 13.09 C
1158 27-07-2018 00:25:00 23.1 C 55 % 13.57 C
1159 27-07-2018 00:30:00 22.9 C 56 % 13.66 C
1160 27-07-2018 00:35:00 22.7 C 57 % 13.75 C
1161 27-07-2018 00:40:00 22.5 C 57 % 13.56 C
1162 27-07-2018 00:45:00 22.3 C 57 % 13.37 C
1163 27-07-2018 00:50:00 22.2 C 58 % 13.55 C
1164 27-07-2018 00:55:00 22.1 C 58 % 13.45 C
1165 27-07-2018 01:00:00 21.9 C 57 % 13 C
1166 27-07-2018 01:05:00 21.8 C 59 % 13.44 C
1167 27-07-2018 01:10:00 21.6 C 58 % 12.99 C
1168 27-07-2018 01:15:00 21.5 C 59 % 13.15 C
1169 27-07-2018 01:20:00 21.4 C 61 % 13.57 C
1170 27-07-2018 01:25:00 21.2 C 60 % 13.13 C
1171 27-07-2018 01:30:00 21 C 62 % 13.44 C
1172 27-07-2018 01:35:00 20.8 C 63 % 13.5 C
1173 27-07-2018 01:40:00 20.6 C 63 % 13.31 C
1174 27-07-2018 01:45:00 20.4 C 62 % 12.88 C
1175 27-07-2018 01:50:00 20.2 C 63 % 12.94 C
Sensor: Nr:Datum:Temp:Feuchte:Taupunkt:
Aussen-T/F 1176 27-07-2018 01:55:00 20.1 C 65 % 13.32 C
1177 27-07-2018 02:00:00 19.9 C 64 % 12.89 C
1178 27-07-2018 02:05:00 20 C 64 % 12.99 C
1179 27-07-2018 02:10:00 20 C 63 % 12.75 C
1180 27-07-2018 02:15:00 19.9 C 64 % 12.89 C
1181 27-07-2018 02:20:00 19.9 C 67 % 13.59 C
1182 27-07-2018 02:25:00 19.8 C 67 % 13.5 C
1183 27-07-2018 02:30:00 19.7 C 65 % 12.94 C
1184 27-07-2018 02:35:00 19.6 C 65 % 12.84 C
1185 27-07-2018 02:40:00 19.4 C 65 % 12.66 C
1186 27-07-2018 02:45:00 19.3 C 66 % 12.79 C
1187 27-07-2018 02:50:00 19.2 C 67 % 12.93 C
1188 27-07-2018 02:55:00 19.1 C 67 % 12.83 C
1189 27-07-2018 03:00:00 19.1 C 67 % 12.83 C
1190 27-07-2018 03:05:00 19 C 66 % 12.51 C
1191 27-07-2018 03:10:00 18.8 C 65 % 12.09 C
1192 27-07-2018 03:15:00 18.8 C 65 % 12.09 C
1193 27-07-2018 03:20:00 18.7 C 67 % 12.45 C
1194 27-07-2018 03:25:00 18.7 C 67 % 12.45 C
1195 27-07-2018 03:30:00 18.6 C 66 % 12.13 C
1196 27-07-2018 03:35:00 18.5 C 67 % 12.26 C
1197 27-07-2018 03:40:00 18.4 C 68 % 12.39 C
1198 27-07-2018 03:45:00 18.3 C 67 % 12.07 C
1199 27-07-2018 03:50:00 18.3 C 69 % 12.52 C
1200 27-07-2018 03:55:00 18.3 C 67 % 12.07 C
Sensor: Nr:Datum:Temp:Feuchte:Taupunkt:
Aussen-T/F 1201 27-07-2018 04:00:00 18.2 C 69 % 12.42 C
1202 27-07-2018 04:05:00 18.2 C 68 % 12.2 C
1203 27-07-2018 04:10:00 18.1 C 69 % 12.33 C
1204 27-07-2018 04:15:00 17.9 C 69 % 12.14 C
1205 27-07-2018 04:20:00 17.8 C 69 % 12.04 C
1206 27-07-2018 04:25:00 17.8 C 68 % 11.82 C
1207 27-07-2018 04:30:00 17.7 C 69 % 11.95 C
1208 27-07-2018 04:35:00 17.8 C 70 % 12.26 C
1209 27-07-2018 04:40:00 17.7 C 70 % 12.16 C
1210 27-07-2018 04:45:00 17.7 C 71 % 12.38 C
1211 27-07-2018 04:50:00 17.7 C 71 % 12.38 C
1212 27-07-2018 04:55:00 17.6 C 72 % 12.5 C
1213 27-07-2018 05:00:00 17.6 C 72 % 12.5 C
1214 27-07-2018 05:05:00 17.4 C 72 % 12.3 C
1215 27-07-2018 05:10:00 17.3 C 72 % 12.21 C
1216 27-07-2018 05:15:00 17.3 C 72 % 12.21 C
1217 27-07-2018 05:20:00 17.2 C 72 % 12.11 C
1218 27-07-2018 05:25:00 17.2 C 73 % 12.32 C
1219 27-07-2018 05:30:00 17.1 C 74 % 12.43 C
1220 27-07-2018 05:35:00 17.1 C 73 % 12.23 C
1221 27-07-2018 05:40:00 17.1 C 74 % 12.43 C
1222 27-07-2018 05:45:00 17.1 C 74 % 12.43 C
1223 27-07-2018 05:50:00 17 C 75 % 12.54 C
1224 27-07-2018 05:55:00 16.9 C 75 % 12.44 C
1225 27-07-2018 06:00:00 16.8 C 75 % 12.35 C
Sensor: Nr:Datum:Temp:Feuchte:Taupunkt:
Aussen-T/F 1226 27-07-2018 06:05:00 16.8 C 74 % 12.14 C
1227 27-07-2018 06:10:00 16.7 C 74 % 12.05 C
1228 27-07-2018 06:15:00 16.7 C 74 % 12.05 C
1229 27-07-2018 06:20:00 16.7 C 76 % 12.45 C
1230 27-07-2018 06:25:00 16.7 C 76 % 12.45 C
1231 27-07-2018 06:30:00 16.6 C 77 % 12.55 C
1232 27-07-2018 06:35:00 16.6 C 78 % 12.75 C
1233 27-07-2018 06:40:00 16.6 C 79 % 12.95 C
1234 27-07-2018 06:45:00 16.6 C 79 % 12.95 C
1235 27-07-2018 06:50:00 16.6 C 79 % 12.95 C
1236 27-07-2018 06:55:00 16.6 C 78 % 12.75 C
1237 27-07-2018 07:00:00 16.6 C 78 % 12.75 C
1238 27-07-2018 07:05:00 16.6 C 78 % 12.75 C
1239 27-07-2018 07:10:00 16.6 C 79 % 12.95 C
1240 27-07-2018 07:15:00 16.6 C 79 % 12.95 C
1241 27-07-2018 07:20:00 16.7 C 79 % 13.04 C
1242 27-07-2018 07:25:00 16.7 C 80 % 13.23 C
1243 27-07-2018 07:30:00 16.7 C 80 % 13.23 C
1244 27-07-2018 07:35:00 16.8 C 80 % 13.33 C
1245 27-07-2018 07:40:00 16.8 C 80 % 13.33 C
1246 27-07-2018 07:45:00 16.9 C 80 % 13.43 C
1247 27-07-2018 07:50:00 16.9 C 81 % 13.62 C
1248 27-07-2018 07:55:00 17.1 C 81 % 13.82 C
1249 27-07-2018 08:00:00 17.2 C 81 % 13.91 C
1250 27-07-2018 08:05:00 17.2 C 81 % 13.91 C
Sensor: Nr:Datum:Temp:Feuchte:Taupunkt:
Aussen-T/F 1251 27-07-2018 08:10:00 17.3 C 80 % 13.82 C
1252 27-07-2018 08:15:00 17.4 C 80 % 13.92 C
1253 27-07-2018 08:20:00 17.5 C 79 % 13.82 C
1254 27-07-2018 08:25:00 17.6 C 79 % 13.92 C
1255 27-07-2018 08:30:00 17.7 C 78 % 13.82 C
1256 27-07-2018 08:35:00 17.8 C 79 % 14.11 C
1257 27-07-2018 08:40:00 18 C 78 % 14.11 C
1258 27-07-2018 08:45:00 18.2 C 79 % 14.5 C
1259 27-07-2018 08:50:00 18.3 C 79 % 14.6 C
1260 27-07-2018 08:55:00 18.5 C 79 % 14.79 C
1261 27-07-2018 09:00:00 18.7 C 79 % 14.99 C
1262 27-07-2018 09:05:00 18.9 C 79 % 15.18 C
1263 27-07-2018 09:10:00 19.1 C 78 % 15.18 C
1264 27-07-2018 09:15:00 19.2 C 77 % 15.07 C
1265 27-07-2018 09:20:00 19.5 C 77 % 15.36 C
1266 27-07-2018 09:25:00 19.8 C 77 % 15.65 C
1267 27-07-2018 09:30:00 20.1 C 76 % 15.74 C
1268 27-07-2018 09:35:00 20.3 C 75 % 15.72 C
1269 27-07-2018 09:40:00 20.6 C 75 % 16.01 C
1270 27-07-2018 09:45:00 20.8 C 74 % 16 C
1271 27-07-2018 09:50:00 21.1 C 72 % 15.86 C
1272 27-07-2018 09:55:00 21.4 C 71 % 15.93 C
1273 27-07-2018 10:00:00 21.7 C 70 % 15.99 C
1274 27-07-2018 10:05:00 22.4 C 64 % 15.26 C
1275 27-07-2018 10:10:00 23.2 C 63 % 15.77 C
Sensor: Nr:Datum:Temp:Feuchte:Taupunkt:
Aussen-T/F 1276 27-07-2018 10:15:00 23.7 C 61 % 15.73 C
1277 27-07-2018 10:20:00 24.1 C 57 % 15.05 C
1278 27-07-2018 10:25:00 24.6 C 56 % 15.24 C
1279 27-07-2018 10:30:00 25.1 C 55 % 15.43 C
1280 27-07-2018 10:35:00 25.7 C 53 % 15.4 C
1281 27-07-2018 10:40:00 26.3 C 50 % 15.05 C
1282 27-07-2018 10:45:00 26.8 C 50 % 15.51 C
1283 27-07-2018 10:50:00 27.2 C 49 % 15.56 C
1284 27-07-2018 10:55:00 27.6 C 47 % 15.27 C
1285 27-07-2018 11:00:00 27.9 C 46 % 15.21 C
1286 27-07-2018 11:05:00 28.2 C 46 % 15.48 C
1287 27-07-2018 11:10:00 28.5 C 45 % 15.41 C
1288 27-07-2018 11:15:00 28.8 C 43 % 14.97 C
1289 27-07-2018 11:20:00 29.1 C 44 % 15.6 C
1290 27-07-2018 11:25:00 29.2 C 41 % 14.59 C
1291 27-07-2018 11:30:00 29.4 C 41 % 14.77 C
1292 27-07-2018 11:35:00 29.8 C 40 % 14.75 C
1293 27-07-2018 11:40:00 30 C 38 % 14.13 C
1294 27-07-2018 11:45:00 30.2 C 39 % 14.71 C
1295 27-07-2018 11:50:00 30.2 C 37 % 13.9 C
1296 27-07-2018 11:55:00 30.3 C 37 % 13.99 C
1297 27-07-2018 12:00:00 30.4 C 37 % 14.07 C
1298 27-07-2018 12:05:00 30.6 C 35 % 13.39 C
1299 27-07-2018 12:10:00 30.6 C 35 % 13.39 C
1300 27-07-2018 12:15:00 30.7 C 35 % 13.48 C
Sensor: Nr:Datum:Temp:Feuchte:Taupunkt:
Aussen-T/F 1301 27-07-2018 12:20:00 30.7 C 35 % 13.48 C
1302 27-07-2018 12:25:00 30.8 C 33 % 12.67 C
1303 27-07-2018 12:30:00 30.8 C 34 % 13.13 C
1304 27-07-2018 12:35:00 30.9 C 34 % 13.21 C
1305 27-07-2018 12:40:00 31 C 34 % 13.3 C
1306 27-07-2018 12:45:00 31 C 33 % 12.84 C
1307 27-07-2018 12:50:00 30.9 C 33 % 12.76 C
1308 27-07-2018 12:55:00 31 C 32 % 12.37 C
1309 27-07-2018 13:00:00 31.1 C 32 % 12.46 C
1310 27-07-2018 13:05:00 31.3 C 32 % 12.63 C
1311 27-07-2018 13:10:00 31.4 C 31 % 12.24 C
1312 27-07-2018 13:15:00 31.5 C 31 % 12.32 C
1313 27-07-2018 13:20:00 31.5 C 33 % 13.28 C
1314 27-07-2018 13:25:00 31.6 C 33 % 13.36 C
1315 27-07-2018 13:30:00 31.7 C 33 % 13.45 C
1316 27-07-2018 13:35:00 31.8 C 32 % 13.07 C
1317 27-07-2018 13:40:00 31.8 C 32 % 13.07 C
1318 27-07-2018 13:45:00 31.9 C 33 % 13.63 C
1319 27-07-2018 13:50:00 32 C 32 % 13.24 C
1320 27-07-2018 13:55:00 32.1 C 32 % 13.33 C
1321 27-07-2018 14:00:00 32.2 C 32 % 13.41 C
1322 27-07-2018 14:05:00 32.3 C 31 % 13.01 C
1323 27-07-2018 14:10:00 32.3 C 31 % 13.01 C
1324 27-07-2018 14:15:00 32.4 C 31 % 13.1 C
1325 27-07-2018 14:20:00 32.4 C 31 % 13.1 C
Sensor: Nr:Datum:Temp:Feuchte:Taupunkt:
Aussen-T/F 1326 27-07-2018 14:25:00 32.5 C 31 % 13.19 C
1327 27-07-2018 14:30:00 32.5 C 31 % 13.19 C
1328 27-07-2018 14:35:00 32.8 C 31 % 13.44 C
1329 27-07-2018 14:40:00 32.8 C 31 % 13.44 C
1330 27-07-2018 14:45:00 32.8 C 30 % 12.94 C
1331 27-07-2018 14:50:00 32.9 C 31 % 13.53 C
1332 27-07-2018 14:55:00 33 C 29 % 12.6 C
1333 27-07-2018 15:00:00 33.1 C 31 % 13.7 C
1334 27-07-2018 15:05:00 33.3 C 30 % 13.37 C
1335 27-07-2018 15:10:00 33.4 C 29 % 12.94 C
1336 27-07-2018 15:15:00 33.5 C 29 % 13.02 C
1337 27-07-2018 15:20:00 33.5 C 29 % 13.02 C
1338 27-07-2018 15:25:00 33.7 C 31 % 14.22 C
1339 27-07-2018 15:30:00 34.1 C 29 % 13.54 C
1340 27-07-2018 15:35:00 34.4 C 28 % 13.25 C
1341 27-07-2018 15:40:00 34.5 C 27 % 12.78 C
1342 27-07-2018 15:45:00 34.7 C 28 % 13.51 C
1343 27-07-2018 15:50:00 35.1 C 26 % 12.71 C
1344 27-07-2018 15:55:00 35.5 C 28 % 14.19 C
1345 27-07-2018 16:00:00 35.7 C 26 % 13.22 C
1346 27-07-2018 16:05:00 35.8 C 26 % 13.3 C
1347 27-07-2018 16:10:00 36.2 C 25 % 13.04 C
1348 27-07-2018 16:15:00 36.4 C 25 % 13.21 C
1349 27-07-2018 16:20:00 36.6 C 26 % 13.98 C
1350 27-07-2018 16:25:00 36.8 C 24 % 12.92 C
Sensor: Nr:Datum:Temp:Feuchte:Taupunkt:
Aussen-T/F 1351 27-07-2018 16:30:00 37.1 C 25 % 13.79 C
1352 27-07-2018 16:35:00 37.4 C 24 % 13.42 C
1353 27-07-2018 16:40:00 37.4 C 23 % 12.76 C
1354 27-07-2018 16:45:00 37.3 C 23 % 12.68 C
1355 27-07-2018 16:50:00 36.6 C 23 % 12.1 C
1356 27-07-2018 16:55:00 35.9 C 25 % 12.79 C
1357 27-07-2018 17:00:00 35.9 C 25 % 12.79 C
1358 27-07-2018 17:05:00 36.1 C 25 % 12.95 C
1359 27-07-2018 17:10:00 35.9 C 25 % 12.79 C
1360 27-07-2018 17:15:00 35.6 C 25 % 12.54 C
1361 27-07-2018 17:20:00 35.5 C 26 % 13.05 C
1362 27-07-2018 17:25:00 35.4 C 25 % 12.37 C
1363 27-07-2018 17:30:00 35.3 C 25 % 12.28 C
1364 27-07-2018 17:35:00 35.4 C 26 % 12.97 C
1365 27-07-2018 17:40:00 35.7 C 24 % 12 C
1366 27-07-2018 17:45:00 35.8 C 25 % 12.7 C
1367 27-07-2018 17:50:00 36 C 24 % 12.25 C
1368 27-07-2018 17:55:00 36.1 C 24 % 12.33 C
1369 27-07-2018 18:00:00 36.3 C 25 % 13.12 C
1370 27-07-2018 18:05:00 36.6 C 24 % 12.75 C
1371 27-07-2018 18:10:00 36.8 C 24 % 12.92 C
1372 27-07-2018 18:15:00 36.9 C 24 % 13 C
1373 27-07-2018 18:20:00 36.8 C 23 % 12.27 C
1374 27-07-2018 18:25:00 36.5 C 23 % 12.02 C
1375 27-07-2018 18:30:00 36.5 C 23 % 12.02 C
Sensor: Nr:Datum:Temp:Feuchte:Taupunkt:
Aussen-T/F 1376 27-07-2018 18:35:00 36.4 C 24 % 12.58 C
1377 27-07-2018 18:40:00 36.7 C 24 % 12.83 C
1378 27-07-2018 18:45:00 36.9 C 23 % 12.35 C
1379 27-07-2018 18:50:00 36.8 C 23 % 12.27 C
1380 27-07-2018 18:55:00 36.6 C 23 % 12.1 C
1381 27-07-2018 19:00:00 36.3 C 23 % 11.85 C
1382 27-07-2018 19:05:00 36.3 C 23 % 11.85 C
1383 27-07-2018 19:10:00 36.1 C 23 % 11.69 C
1384 27-07-2018 19:15:00 35.9 C 24 % 12.17 C
1385 27-07-2018 19:20:00 35.9 C 25 % 12.79 C
1386 27-07-2018 19:25:00 35.8 C 25 % 12.7 C
1387 27-07-2018 19:30:00 35.6 C 25 % 12.54 C
1388 27-07-2018 19:35:00 35.3 C 25 % 12.28 C
1389 27-07-2018 19:40:00 35.1 C 27 % 13.29 C
1390 27-07-2018 19:45:00 34.8 C 27 % 13.04 C
1391 27-07-2018 19:50:00 34.7 C 27 % 12.95 C
1392 27-07-2018 19:55:00 34.6 C 30 % 14.49 C
1393 27-07-2018 20:00:00 34.3 C 27 % 12.61 C
1394 27-07-2018 20:05:00 34.1 C 33 % 15.54 C
1395 27-07-2018 20:10:00 33.8 C 42 % 19.09 C
1396 27-07-2018 20:15:00 33.4 C 35 % 15.85 C
1397 27-07-2018 20:20:00 32.9 C 36 % 15.85 C
1398 27-07-2018 20:25:00 32.4 C 37 % 15.84 C
1399 27-07-2018 20:30:00 31.9 C 37 % 15.4 C
1400 27-07-2018 20:35:00 31.4 C 37 % 14.96 C
Sensor: Nr:Datum:Temp:Feuchte:Taupunkt:
Aussen-T/F 1401 27-07-2018 20:40:00 31.1 C 41 % 16.29 C
1402 27-07-2018 20:45:00 30.6 C 41 % 15.85 C
1403 27-07-2018 20:50:00 30.1 C 41 % 15.4 C
1404 27-07-2018 20:55:00 29.7 C 42 % 15.42 C
1405 27-07-2018 21:00:00 29.2 C 43 % 15.33 C
1406 27-07-2018 21:05:00 28.8 C 44 % 15.33 C
1407 27-07-2018 21:10:00 28.4 C 45 % 15.32 C
1408 27-07-2018 21:15:00 28.1 C 46 % 15.39 C
1409 27-07-2018 21:20:00 27.7 C 46 % 15.03 C
1410 27-07-2018 21:25:00 27.4 C 46 % 14.76 C
1411 27-07-2018 21:30:00 27.2 C 47 % 14.91 C
1412 27-07-2018 21:35:00 26.9 C 47 % 14.64 C
1413 27-07-2018 21:40:00 26.8 C 47 % 14.55 C
1414 27-07-2018 21:45:00 26.7 C 47 % 14.45 C
1415 27-07-2018 21:50:00 26.6 C 47 % 14.36 C
1416 27-07-2018 21:55:00 26.4 C 47 % 14.18 C
1417 27-07-2018 22:00:00 26.4 C 47 % 14.18 C
1418 27-07-2018 22:05:00 26.4 C 48 % 14.51 C
1419 27-07-2018 22:10:00 26.3 C 48 % 14.42 C
1420 27-07-2018 22:15:00 26.3 C 49 % 14.74 C
1421 27-07-2018 22:20:00 26.2 C 49 % 14.64 C
1422 27-07-2018 22:25:00 26.1 C 49 % 14.55 C
1423 27-07-2018 22:30:00 26.1 C 49 % 14.55 C
1424 27-07-2018 22:35:00 26.1 C 49 % 14.55 C
1425 27-07-2018 22:40:00 26 C 49 % 14.46 C
Sensor: Nr:Datum:Temp:Feuchte:Taupunkt:
Aussen-T/F 1426 27-07-2018 22:45:00 25.9 C 50 % 14.68 C
1427 27-07-2018 22:50:00 25.7 C 51 % 14.81 C
1428 27-07-2018 22:55:00 25.6 C 51 % 14.71 C
1429 27-07-2018 23:00:00 25.4 C 52 % 14.83 C
1430 27-07-2018 23:05:00 25.3 C 52 % 14.74 C
1431 27-07-2018 23:10:00 25.2 C 52 % 14.65 C
1432 27-07-2018 23:15:00 25.1 C 53 % 14.85 C
1433 27-07-2018 23:20:00 24.9 C 53 % 14.66 C
1434 27-07-2018 23:25:00 24.9 C 53 % 14.66 C
1435 27-07-2018 23:30:00 24.8 C 53 % 14.57 C
1436 27-07-2018 23:35:00 24.6 C 54 % 14.68 C
1437 27-07-2018 23:40:00 24.6 C 56 % 15.24 C
1438 27-07-2018 23:45:00 24.5 C 57 % 15.42 C
1439 27-07-2018 23:50:00 24.4 C 58 % 15.6 C
1440 27-07-2018 23:55:00 24.2 C 58 % 15.42 C
1441 28-07-2018 00:00:00 23.9 C 58 % 15.14 C
1442 28-07-2018 00:05:00 23.7 C 59 % 15.21 C
1443 28-07-2018 00:10:00 23.5 C 59 % 15.03 C
1444 28-07-2018 00:15:00 23.3 C 59 % 14.84 C
1445 28-07-2018 00:20:00 23.1 C 59 % 14.65 C
1446 28-07-2018 00:25:00 23.1 C 60 % 14.91 C
1447 28-07-2018 00:30:00 22.9 C 59 % 14.47 C
1448 28-07-2018 00:35:00 22.8 C 61 % 14.89 C
1449 28-07-2018 00:40:00 22.7 C 61 % 14.79 C
1450 28-07-2018 00:45:00 22.5 C 63 % 15.11 C
Sensor: Nr:Datum:Temp:Feuchte:Taupunkt:
Aussen-T/F 1451 28-07-2018 00:50:00 22.3 C 63 % 14.92 C
1452 28-07-2018 00:55:00 22.2 C 63 % 14.82 C
1453 28-07-2018 01:00:00 22.1 C 63 % 14.73 C
1454 28-07-2018 01:05:00 21.9 C 64 % 14.78 C
1455 28-07-2018 01:10:00 21.8 C 64 % 14.69 C
1456 28-07-2018 01:15:00 21.8 C 64 % 14.69 C
1457 28-07-2018 01:20:00 21.7 C 65 % 14.84 C
1458 28-07-2018 01:25:00 21.6 C 66 % 14.98 C
1459 28-07-2018 01:30:00 21.5 C 66 % 14.88 C
1460 28-07-2018 01:35:00 21.4 C 66 % 14.79 C
1461 28-07-2018 01:40:00 21.3 C 67 % 14.93 C
1462 28-07-2018 01:45:00 21.3 C 68 % 15.16 C
1463 28-07-2018 01:50:00 21.3 C 69 % 15.38 C
1464 28-07-2018 01:55:00 21.3 C 70 % 15.61 C
1465 28-07-2018 02:00:00 21.5 C 69 % 15.57 C
1466 28-07-2018 02:05:00 21.6 C 69 % 15.67 C
1467 28-07-2018 02:10:00 21.6 C 69 % 15.67 C
1468 28-07-2018 02:15:00 21.5 C 69 % 15.57 C
1469 28-07-2018 02:20:00 21.3 C 70 % 15.61 C
1470 28-07-2018 02:25:00 21.2 C 70 % 15.51 C
1471 28-07-2018 02:30:00 20.9 C 70 % 15.23 C
1472 28-07-2018 02:35:00 20.8 C 71 % 15.35 C
1473 28-07-2018 02:40:00 20.7 C 71 % 15.25 C
1474 28-07-2018 02:45:00 20.4 C 71 % 14.97 C
1475 28-07-2018 02:50:00 20.4 C 72 % 15.18 C
Sensor: Nr:Datum:Temp:Feuchte:Taupunkt:
Aussen-T/F 1476 28-07-2018 02:55:00 20.3 C 72 % 15.09 C
1477 28-07-2018 03:00:00 20.2 C 72 % 14.99 C
1478 28-07-2018 03:05:00 20 C 73 % 15.01 C
1479 28-07-2018 03:10:00 19.8 C 73 % 14.82 C
1480 28-07-2018 03:15:00 19.7 C 74 % 14.94 C
1481 28-07-2018 03:20:00 19.6 C 73 % 14.63 C
1482 28-07-2018 03:25:00 19.6 C 74 % 14.84 C
1483 28-07-2018 03:30:00 19.4 C 74 % 14.65 C
1484 28-07-2018 03:35:00 19.4 C 74 % 14.65 C
1485 28-07-2018 03:40:00 19.4 C 74 % 14.65 C
1486 28-07-2018 03:45:00 19.6 C 74 % 14.84 C
1487 28-07-2018 03:50:00 19.6 C 73 % 14.63 C
1488 28-07-2018 03:55:00 19.5 C 73 % 14.53 C
1489 28-07-2018 04:00:00 19.3 C 74 % 14.55 C
1490 28-07-2018 04:05:00 19.2 C 74 % 14.46 C
1491 28-07-2018 04:10:00 19 C 75 % 14.47 C
1492 28-07-2018 04:15:00 18.8 C 76 % 14.48 C
1493 28-07-2018 04:20:00 18.8 C 77 % 14.68 C
1494 28-07-2018 04:25:00 18.7 C 77 % 14.59 C
1495 28-07-2018 04:30:00 18.7 C 77 % 14.59 C
1496 28-07-2018 04:35:00 18.7 C 77 % 14.59 C
1497 28-07-2018 04:40:00 18.6 C 77 % 14.49 C
1498 28-07-2018 04:45:00 18.4 C 77 % 14.3 C
1499 28-07-2018 04:50:00 18.4 C 79 % 14.69 C
1500 28-07-2018 04:55:00 18.6 C 78 % 14.69 C
Sensor: Nr:Datum:Temp:Feuchte:Taupunkt:
Aussen-T/F 1501 28-07-2018 05:00:00 18.7 C 77 % 14.59 C
1502 28-07-2018 05:05:00 18.9 C 77 % 14.78 C
1503 28-07-2018 05:10:00 19 C 77 % 14.88 C
1504 28-07-2018 05:15:00 19.1 C 76 % 14.77 C
1505 28-07-2018 05:20:00 19.2 C 75 % 14.66 C
1506 28-07-2018 05:25:00 19.3 C 75 % 14.76 C
1507 28-07-2018 05:30:00 19.3 C 75 % 14.76 C
1508 28-07-2018 05:35:00 19.2 C 75 % 14.66 C
1509 28-07-2018 05:40:00 19 C 75 % 14.47 C
1510 28-07-2018 05:45:00 18.8 C 76 % 14.48 C
1511 28-07-2018 05:50:00 18.7 C 76 % 14.39 C
1512 28-07-2018 05:55:00 18.6 C 77 % 14.49 C
1513 28-07-2018 06:00:00 18.4 C 77 % 14.3 C
1514 28-07-2018 06:05:00 18.3 C 78 % 14.4 C
1515 28-07-2018 06:10:00 18.2 C 78 % 14.3 C
1516 28-07-2018 06:15:00 18.2 C 78 % 14.3 C
1517 28-07-2018 06:20:00 18.2 C 78 % 14.3 C
1518 28-07-2018 06:25:00 18.3 C 78 % 14.4 C
1519 28-07-2018 06:30:00 18.3 C 78 % 14.4 C
1520 28-07-2018 06:35:00 18.4 C 79 % 14.69 C
1521 28-07-2018 06:40:00 18.4 C 80 % 14.89 C
1522 28-07-2018 06:45:00 18.6 C 79 % 14.89 C
1523 28-07-2018 06:50:00 18.7 C 80 % 15.18 C
1524 28-07-2018 06:55:00 18.8 C 80 % 15.28 C
1525 28-07-2018 07:00:00 18.9 C 79 % 15.18 C
Sensor: Nr:Datum:Temp:Feuchte:Taupunkt:
Aussen-T/F 1526 28-07-2018 07:05:00 19.1 C 79 % 15.37 C
1527 28-07-2018 07:10:00 19.3 C 78 % 15.37 C
1528 28-07-2018 07:15:00 19.5 C 77 % 15.36 C
1529 28-07-2018 07:20:00 19.7 C 77 % 15.56 C
1530 28-07-2018 07:25:00 19.8 C 78 % 15.85 C
1531 28-07-2018 07:30:00 19.9 C 78 % 15.95 C
1532 28-07-2018 07:35:00 20.1 C 77 % 15.94 C
1533 28-07-2018 07:40:00 20.2 C 77 % 16.04 C
1534 28-07-2018 07:45:00 20.3 C 77 % 16.14 C
1535 28-07-2018 07:50:00 20.4 C 76 % 16.03 C
1536 28-07-2018 07:55:00 20.6 C 81 % 17.22 C
1537 28-07-2018 08:00:00 20.4 C 81 % 17.03 C
1538 28-07-2018 08:05:00 20.2 C 82 % 17.03 C
1539 28-07-2018 08:10:00 20 C 84 % 17.21 C
1540 28-07-2018 08:15:00 19.9 C 84 % 17.12 C
1541 28-07-2018 08:20:00 19.8 C 85 % 17.21 C
1542 28-07-2018 08:25:00 19.7 C 85 % 17.11 C
1543 28-07-2018 08:30:00 19.7 C 83 % 16.73 C
1544 28-07-2018 08:35:00 19.7 C 83 % 16.73 C
1545 28-07-2018 08:40:00 19.7 C 82 % 16.54 C
1546 28-07-2018 08:45:00 19.8 C 82 % 16.64 C
1547 28-07-2018 08:50:00 19.8 C 84 % 17.02 C
1548 28-07-2018 08:55:00 19.8 C 83 % 16.83 C
1549 28-07-2018 09:00:00 19.8 C 84 % 17.02 C
1550 28-07-2018 09:05:00 19.8 C 84 % 17.02 C
Sensor: Nr:Datum:Temp:Feuchte:Taupunkt:
Aussen-T/F 1551 28-07-2018 09:10:00 19.8 C 84 % 17.02 C
1552 28-07-2018 09:15:00 19.7 C 84 % 16.92 C
1553 28-07-2018 09:20:00 19.7 C 84 % 16.92 C
1554 28-07-2018 09:25:00 19.7 C 85 % 17.11 C
1555 28-07-2018 09:30:00 19.8 C 86 % 17.39 C
1556 28-07-2018 09:35:00 19.8 C 87 % 17.57 C
1557 28-07-2018 09:40:00 19.9 C 87 % 17.67 C
1558 28-07-2018 09:45:00 19.9 C 88 % 17.85 C
1559 28-07-2018 09:50:00 20.1 C 89 % 18.23 C
1560 28-07-2018 09:55:00 20.2 C 90 % 18.51 C
1561 28-07-2018 10:00:00 20.2 C 88 % 18.15 C
1562 28-07-2018 10:05:00 20.3 C 88 % 18.25 C
1563 28-07-2018 10:10:00 20.5 C 89 % 18.62 C
1564 28-07-2018 10:15:00 20.6 C 87 % 18.36 C
1565 28-07-2018 10:20:00 20.8 C 86 % 18.37 C
1566 28-07-2018 10:25:00 20.9 C 85 % 18.28 C
1567 28-07-2018 10:30:00 21 C 85 % 18.38 C
1568 28-07-2018 10:35:00 21.2 C 86 % 18.76 C
1569 28-07-2018 10:40:00 21.4 C 86 % 18.96 C
1570 28-07-2018 10:45:00 21.5 C 84 % 18.68 C
1571 28-07-2018 10:50:00 21.8 C 85 % 19.16 C
1572 28-07-2018 10:55:00 22.1 C 81 % 18.69 C
1573 28-07-2018 11:00:00 22.4 C 78 % 18.37 C
1574 28-07-2018 11:05:00 22.8 C 76 % 18.35 C
1575 28-07-2018 11:10:00 23.1 C 75 % 18.43 C
Sensor: Nr:Datum:Temp:Feuchte:Taupunkt:
Aussen-T/F 1576 28-07-2018 11:15:00 23.3 C 70 % 17.52 C
1577 28-07-2018 11:20:00 23.6 C 69 % 17.58 C
1578 28-07-2018 11:25:00 23.7 C 68 % 17.44 C
1579 28-07-2018 11:30:00 23.9 C 73 % 18.76 C
1580 28-07-2018 11:35:00 24.1 C 74 % 19.17 C
1581 28-07-2018 11:40:00 24.2 C 70 % 18.38 C
1582 28-07-2018 11:45:00 24.3 C 68 % 18.01 C
1583 28-07-2018 11:50:00 24.3 C 68 % 18.01 C
1584 28-07-2018 11:55:00 24.4 C 68 % 18.11 C
1585 28-07-2018 12:00:00 24.6 C 66 % 17.83 C
1586 28-07-2018 12:05:00 24.8 C 68 % 18.49 C
1587 28-07-2018 12:10:00 25.1 C 66 % 18.3 C
1588 28-07-2018 12:15:00 25.3 C 66 % 18.49 C
1589 28-07-2018 12:20:00 25.4 C 62 % 17.59 C
1590 28-07-2018 12:25:00 25.6 C 62 % 17.78 C
1591 28-07-2018 12:30:00 25.8 C 60 % 17.45 C
1592 28-07-2018 12:35:00 26.1 C 61 % 17.99 C
1593 28-07-2018 12:40:00 26.3 C 60 % 17.91 C
1594 28-07-2018 12:45:00 26.6 C 59 % 17.93 C
1595 28-07-2018 12:50:00 26.8 C 57 % 17.57 C
1596 28-07-2018 12:55:00 27 C 55 % 17.19 C
1597 28-07-2018 13:00:00 27.2 C 54 % 17.08 C
1598 28-07-2018 13:05:00 27.3 C 55 % 17.47 C
1599 28-07-2018 13:10:00 27.3 C 55 % 17.47 C
1600 28-07-2018 13:15:00 27.4 C 55 % 17.56 C
Sensor: Nr:Datum:Temp:Feuchte:Taupunkt:
Aussen-T/F 1601 28-07-2018 13:20:00 27.7 C 54 % 17.55 C
1602 28-07-2018 13:25:00 27.9 C 54 % 17.73 C
1603 28-07-2018 13:30:00 28.2 C 52 % 17.41 C
1604 28-07-2018 13:35:00 28.2 C 52 % 17.41 C
1605 28-07-2018 13:40:00 28.1 C 53 % 17.62 C
1606 28-07-2018 13:45:00 28 C 53 % 17.53 C
1607 28-07-2018 13:50:00 27.8 C 54 % 17.64 C
1608 28-07-2018 13:55:00 27.8 C 54 % 17.64 C
1609 28-07-2018 14:00:00 27.8 C 56 % 18.22 C
1610 28-07-2018 14:05:00 28.2 C 57 % 18.87 C
1611 28-07-2018 14:10:00 28.3 C 58 % 19.24 C
1612 28-07-2018 14:15:00 28.2 C 58 % 19.15 C
1613 28-07-2018 14:20:00 28.2 C 59 % 19.42 C
1614 28-07-2018 14:25:00 28.3 C 58 % 19.24 C
1615 28-07-2018 14:30:00 28.4 C 57 % 19.06 C
1616 28-07-2018 14:35:00 28.4 C 56 % 18.77 C
1617 28-07-2018 14:40:00 28.4 C 55 % 18.49 C
1618 28-07-2018 14:45:00 27.9 C 58 % 18.87 C
1619 28-07-2018 14:50:00 27.3 C 61 % 19.12 C
1620 28-07-2018 14:55:00 26.8 C 60 % 18.38 C
1621 28-07-2018 15:00:00 26.4 C 62 % 18.53 C
1622 28-07-2018 15:05:00 26.3 C 62 % 18.44 C
1623 28-07-2018 15:10:00 26.2 C 62 % 18.34 C
1624 28-07-2018 15:15:00 26.1 C 62 % 18.25 C
1625 28-07-2018 15:20:00 26.1 C 62 % 18.25 C
Sensor: Nr:Datum:Temp:Feuchte:Taupunkt:
Aussen-T/F 1626 28-07-2018 15:25:00 26 C 62 % 18.15 C
1627 28-07-2018 15:30:00 25.8 C 65 % 18.72 C
1628 28-07-2018 15:35:00 25.5 C 75 % 20.74 C
1629 28-07-2018 15:40:00 24.3 C 77 % 20.01 C
1630 28-07-2018 15:45:00 23.1 C 79 % 19.26 C
1631 28-07-2018 15:50:00 22.4 C 84 % 19.56 C
1632 28-07-2018 15:55:00 22.2 C 87 % 19.93 C
1633 28-07-2018 16:00:00 22.3 C 90 % 20.58 C
1634 28-07-2018 16:05:00 22.7 C 92 % 21.33 C
1635 28-07-2018 16:10:00 23.1 C 92 % 21.73 C
1636 28-07-2018 16:15:00 23.2 C 91 % 21.65 C
1637 28-07-2018 16:20:00 23.2 C 90 % 21.47 C
1638 28-07-2018 16:25:00 23.1 C 89 % 21.19 C
1639 28-07-2018 16:30:00 23 C 89 % 21.09 C
1640 28-07-2018 16:35:00 22.9 C 89 % 20.99 C
1641 28-07-2018 16:40:00 23.1 C 91 % 21.55 C
1642 28-07-2018 16:45:00 23.2 C 91 % 21.65 C
1643 28-07-2018 16:50:00 23.3 C 91 % 21.75 C
1644 28-07-2018 16:55:00 23.3 C 91 % 21.75 C
1645 28-07-2018 17:00:00 23.4 C 91 % 21.85 C
1646 28-07-2018 17:05:00 23.5 C 91 % 21.94 C
1647 28-07-2018 17:10:00 23.5 C 91 % 21.94 C
1648 28-07-2018 17:15:00 23.6 C 91 % 22.04 C
1649 28-07-2018 17:20:00 23.5 C 90 % 21.76 C
1650 28-07-2018 17:25:00 23.4 C 90 % 21.66 C
Sensor: Nr:Datum:Temp:Feuchte:Taupunkt:
Aussen-T/F 1651 28-07-2018 17:30:00 23.3 C 90 % 21.57 C
1652 28-07-2018 17:35:00 23.2 C 90 % 21.47 C
1653 28-07-2018 17:40:00 23.3 C 91 % 21.75 C
1654 28-07-2018 17:45:00 23.5 C 92 % 22.12 C
1655 28-07-2018 17:50:00 23.5 C 90 % 21.76 C
1656 28-07-2018 17:55:00 23.3 C 89 % 21.38 C
1657 28-07-2018 18:00:00 23 C 88 % 20.9 C
1658 28-07-2018 18:05:00 22.8 C 89 % 20.89 C
1659 28-07-2018 18:10:00 22.7 C 90 % 20.97 C
1660 28-07-2018 18:15:00 22.6 C 90 % 20.87 C
1661 28-07-2018 18:20:00 22.4 C 90 % 20.68 C
1662 28-07-2018 18:25:00 22.6 C 91 % 21.05 C
1663 28-07-2018 18:30:00 22.8 C 92 % 21.43 C
1664 28-07-2018 18:35:00 23.1 C 92 % 21.73 C
1665 28-07-2018 18:40:00 23.2 C 92 % 21.83 C
1666 28-07-2018 18:45:00 23.3 C 91 % 21.75 C
1667 28-07-2018 18:50:00 23.4 C 89 % 21.48 C
1668 28-07-2018 18:55:00 23.8 C 86 % 21.31 C
1669 28-07-2018 19:00:00 23.9 C 85 % 21.22 C
1670 28-07-2018 19:05:00 23.6 C 81 % 20.15 C
1671 28-07-2018 19:10:00 23.3 C 82 % 20.05 C
1672 28-07-2018 19:15:00 23 C 81 % 19.56 C
1673 28-07-2018 19:20:00 22.7 C 82 % 19.47 C
1674 28-07-2018 19:25:00 22.6 C 83 % 19.56 C
1675 28-07-2018 19:30:00 22.3 C 83 % 19.27 C
Sensor: Nr:Datum:Temp:Feuchte:Taupunkt:
Aussen-T/F 1676 28-07-2018 19:35:00 22.3 C 83 % 19.27 C
1677 28-07-2018 19:40:00 22.2 C 84 % 19.37 C
1678 28-07-2018 19:45:00 22.2 C 86 % 19.75 C
1679 28-07-2018 19:50:00 22.2 C 87 % 19.93 C
1680 28-07-2018 19:55:00 22.2 C 87 % 19.93 C
1681 28-07-2018 20:00:00 22.1 C 85 % 19.46 C
1682 28-07-2018 20:05:00 22 C 86 % 19.55 C
1683 28-07-2018 20:10:00 21.9 C 85 % 19.26 C
1684 28-07-2018 20:15:00 21.8 C 85 % 19.16 C
1685 28-07-2018 20:20:00 21.7 C 85 % 19.07 C
1686 28-07-2018 20:25:00 21.7 C 85 % 19.07 C
1687 28-07-2018 20:30:00 21.8 C 86 % 19.35 C
1688 28-07-2018 20:35:00 21.8 C 86 % 19.35 C
1689 28-07-2018 20:40:00 21.9 C 85 % 19.26 C
1690 28-07-2018 20:45:00 21.9 C 84 % 19.07 C
1691 28-07-2018 20:50:00 21.9 C 83 % 18.88 C
1692 28-07-2018 20:55:00 21.9 C 84 % 19.07 C
1693 28-07-2018 21:00:00 21.9 C 84 % 19.07 C
1694 28-07-2018 21:05:00 21.7 C 81 % 18.3 C
1695 28-07-2018 21:10:00 21.7 C 81 % 18.3 C
1696 28-07-2018 21:15:00 21.6 C 82 % 18.39 C
1697 28-07-2018 21:20:00 21.4 C 80 % 17.81 C
1698 28-07-2018 21:25:00 21.3 C 81 % 17.91 C
1699 28-07-2018 21:30:00 21.2 C 81 % 17.81 C
1700 28-07-2018 21:35:00 21 C 81 % 17.61 C
Sensor: Nr:Datum:Temp:Feuchte:Taupunkt:
Aussen-T/F 1701 28-07-2018 21:40:00 20.8 C 79 % 17.02 C
1702 28-07-2018 21:45:00 20.7 C 79 % 16.93 C
1703 28-07-2018 21:50:00 20.6 C 80 % 17.03 C
1704 28-07-2018 21:55:00 20.5 C 81 % 17.13 C
1705 28-07-2018 22:00:00 20.4 C 80 % 16.83 C
1706 28-07-2018 22:05:00 20.3 C 79 % 16.54 C
1707 28-07-2018 22:10:00 20.3 C 80 % 16.74 C
1708 28-07-2018 22:15:00 20.3 C 82 % 17.13 C
1709 28-07-2018 22:20:00 20.2 C 82 % 17.03 C
1710 28-07-2018 22:25:00 20.1 C 81 % 16.74 C
1711 28-07-2018 22:30:00 19.9 C 82 % 16.74 C
1712 28-07-2018 22:35:00 19.9 C 83 % 16.93 C
1713 28-07-2018 22:40:00 19.8 C 84 % 17.02 C
1714 28-07-2018 22:45:00 19.8 C 83 % 16.83 C
1715 28-07-2018 22:50:00 19.8 C 82 % 16.64 C
1716 28-07-2018 22:55:00 19.8 C 83 % 16.83 C
1717 28-07-2018 23:00:00 19.7 C 82 % 16.54 C
1718 28-07-2018 23:05:00 19.7 C 83 % 16.73 C
1719 28-07-2018 23:10:00 19.7 C 83 % 16.73 C
1720 28-07-2018 23:15:00 19.9 C 81 % 16.54 C
1721 28-07-2018 23:20:00 20.2 C 83 % 17.22 C
1722 28-07-2018 23:25:00 20.2 C 81 % 16.84 C
1723 28-07-2018 23:30:00 20.2 C 82 % 17.03 C
1724 28-07-2018 23:35:00 20.2 C 84 % 17.41 C
1725 28-07-2018 23:40:00 20.1 C 83 % 17.12 C
Sensor: Nr:Datum:Temp:Feuchte:Taupunkt:
Aussen-T/F 1726 28-07-2018 23:45:00 20.1 C 83 % 17.12 C
1727 28-07-2018 23:50:00 20 C 84 % 17.21 C
1728 28-07-2018 23:55:00 19.9 C 84 % 17.12 C
1729 29-07-2018 00:00:00 19.8 C 84 % 17.02 C
1730 29-07-2018 00:05:00 19.8 C 85 % 17.21 C
1731 29-07-2018 00:10:00 19.7 C 85 % 17.11 C
1732 29-07-2018 00:15:00 19.6 C 84 % 16.82 C
1733 29-07-2018 00:20:00 19.4 C 85 % 16.81 C
1734 29-07-2018 00:25:00 19.3 C 85 % 16.72 C
1735 29-07-2018 00:30:00 19.3 C 85 % 16.72 C
1736 29-07-2018 00:35:00 19.2 C 86 % 16.8 C
1737 29-07-2018 00:40:00 19.2 C 87 % 16.98 C
1738 29-07-2018 00:45:00 19.2 C 87 % 16.98 C
1739 29-07-2018 00:50:00 19.1 C 87 % 16.89 C
1740 29-07-2018 00:55:00 19.1 C 87 % 16.89 C
1741 29-07-2018 01:00:00 19 C 87 % 16.79 C
1742 29-07-2018 01:05:00 18.9 C 88 % 16.87 C
1743 29-07-2018 01:10:00 18.8 C 88 % 16.77 C
1744 29-07-2018 01:15:00 18.7 C 88 % 16.67 C
1745 29-07-2018 01:20:00 18.7 C 88 % 16.67 C
1746 29-07-2018 01:25:00 18.5 C 88 % 16.48 C
1747 29-07-2018 01:30:00 18.4 C 88 % 16.38 C
1748 29-07-2018 01:35:00 18.3 C 88 % 16.28 C
1749 29-07-2018 01:40:00 18.2 C 88 % 16.18 C
1750 29-07-2018 01:45:00 18.1 C 88 % 16.08 C
Sensor: Nr:Datum:Temp:Feuchte:Taupunkt:
Aussen-T/F 1751 29-07-2018 01:50:00 18 C 88 % 15.98 C
1752 29-07-2018 01:55:00 17.9 C 88 % 15.88 C
1753 29-07-2018 02:00:00 17.9 C 88 % 15.88 C
1754 29-07-2018 02:05:00 17.9 C 87 % 15.71 C
1755 29-07-2018 02:10:00 17.9 C 88 % 15.88 C
1756 29-07-2018 02:15:00 17.9 C 88 % 15.88 C
1757 29-07-2018 02:20:00 17.8 C 87 % 15.61 C
1758 29-07-2018 02:25:00 17.8 C 87 % 15.61 C
1759 29-07-2018 02:30:00 17.7 C 88 % 15.69 C
1760 29-07-2018 02:35:00 17.6 C 87 % 15.41 C
1761 29-07-2018 02:40:00 17.5 C 87 % 15.31 C
1762 29-07-2018 02:45:00 17.5 C 88 % 15.49 C
1763 29-07-2018 02:50:00 17.4 C 88 % 15.39 C
1764 29-07-2018 02:55:00 17.4 C 88 % 15.39 C
1765 29-07-2018 03:00:00 17.3 C 88 % 15.29 C
1766 29-07-2018 03:05:00 17.2 C 88 % 15.2 C
1767 29-07-2018 03:10:00 17.2 C 89 % 15.37 C
1768 29-07-2018 03:15:00 17.2 C 89 % 15.37 C
1769 29-07-2018 03:20:00 17.1 C 88 % 15.1 C
1770 29-07-2018 03:25:00 17 C 89 % 15.17 C
1771 29-07-2018 03:30:00 17 C 89 % 15.17 C
1772 29-07-2018 03:35:00 16.9 C 89 % 15.08 C
1773 29-07-2018 03:40:00 16.9 C 89 % 15.08 C
1774 29-07-2018 03:45:00 16.8 C 89 % 14.98 C
1775 29-07-2018 03:50:00 16.7 C 88 % 14.7 C
Sensor: Nr:Datum:Temp:Feuchte:Taupunkt:
Aussen-T/F 1776 29-07-2018 03:55:00 16.6 C 89 % 14.78 C
1777 29-07-2018 04:00:00 16.5 C 88 % 14.51 C
1778 29-07-2018 04:05:00 16.4 C 89 % 14.58 C
1779 29-07-2018 04:10:00 16.4 C 89 % 14.58 C
1780 29-07-2018 04:15:00 16.4 C 89 % 14.58 C
1781 29-07-2018 04:20:00 16.4 C 89 % 14.58 C
1782 29-07-2018 04:25:00 16.3 C 88 % 14.31 C
1783 29-07-2018 04:30:00 16.3 C 89 % 14.48 C
1784 29-07-2018 04:35:00 16.4 C 89 % 14.58 C
1785 29-07-2018 04:40:00 16.4 C 89 % 14.58 C
1786 29-07-2018 04:45:00 16.4 C 89 % 14.58 C
1787 29-07-2018 04:50:00 16.4 C 89 % 14.58 C
1788 29-07-2018 04:55:00 16.4 C 89 % 14.58 C
1789 29-07-2018 05:00:00 16.5 C 89 % 14.68 C
1790 29-07-2018 05:05:00 16.6 C 89 % 14.78 C
1791 29-07-2018 05:10:00 16.6 C 89 % 14.78 C
1792 29-07-2018 05:15:00 16.6 C 89 % 14.78 C
1793 29-07-2018 05:20:00 16.7 C 90 % 15.05 C
1794 29-07-2018 05:25:00 16.7 C 89 % 14.88 C
1795 29-07-2018 05:30:00 16.7 C 89 % 14.88 C
1796 29-07-2018 05:35:00 16.7 C 89 % 14.88 C
1797 29-07-2018 05:40:00 16.7 C 90 % 15.05 C
1798 29-07-2018 05:45:00 16.7 C 89 % 14.88 C
1799 29-07-2018 05:50:00 16.7 C 90 % 15.05 C
1800 29-07-2018 05:55:00 16.7 C 90 % 15.05 C
Sensor: Nr:Datum:Temp:Feuchte:Taupunkt:
Aussen-T/F 1801 29-07-2018 06:00:00 16.7 C 90 % 15.05 C
1802 29-07-2018 06:05:00 16.6 C 89 % 14.78 C
1803 29-07-2018 06:10:00 16.6 C 90 % 14.95 C
1804 29-07-2018 06:15:00 16.6 C 90 % 14.95 C
1805 29-07-2018 06:20:00 16.6 C 90 % 14.95 C
1806 29-07-2018 06:25:00 16.6 C 90 % 14.95 C
1807 29-07-2018 06:30:00 16.7 C 90 % 15.05 C
1808 29-07-2018 06:35:00 16.7 C 90 % 15.05 C
1809 29-07-2018 06:40:00 16.8 C 90 % 15.15 C
1810 29-07-2018 06:45:00 16.8 C 89 % 14.98 C
1811 29-07-2018 06:50:00 16.9 C 89 % 15.08 C
1812 29-07-2018 06:55:00 16.9 C 89 % 15.08 C
1813 29-07-2018 07:00:00 17 C 90 % 15.35 C
1814 29-07-2018 07:05:00 17.1 C 90 % 15.45 C
1815 29-07-2018 07:10:00 17.1 C 90 % 15.45 C
1816 29-07-2018 07:15:00 17.2 C 90 % 15.55 C
1817 29-07-2018 07:20:00 17.2 C 90 % 15.55 C
1818 29-07-2018 07:25:00 17.3 C 90 % 15.64 C
1819 29-07-2018 07:30:00 17.3 C 90 % 15.64 C
1820 29-07-2018 07:35:00 17.4 C 90 % 15.74 C
1821 29-07-2018 07:40:00 17.4 C 90 % 15.74 C
1822 29-07-2018 07:45:00 17.5 C 90 % 15.84 C
1823 29-07-2018 07:50:00 17.6 C 90 % 15.94 C
1824 29-07-2018 07:55:00 17.7 C 89 % 15.86 C
1825 29-07-2018 08:00:00 17.7 C 89 % 15.86 C
Sensor: Nr:Datum:Temp:Feuchte:Taupunkt:
Aussen-T/F 1826 29-07-2018 08:05:00 17.8 C 89 % 15.96 C
1827 29-07-2018 08:10:00 17.9 C 89 % 16.06 C
1828 29-07-2018 08:15:00 18 C 89 % 16.16 C
1829 29-07-2018 08:20:00 18 C 89 % 16.16 C
1830 29-07-2018 08:25:00 18 C 88 % 15.98 C
1831 29-07-2018 08:30:00 17.9 C 88 % 15.88 C
1832 29-07-2018 08:35:00 18 C 88 % 15.98 C
1833 29-07-2018 08:40:00 18 C 88 % 15.98 C
1834 29-07-2018 08:45:00 18.1 C 88 % 16.08 C
1835 29-07-2018 08:50:00 18.3 C 88 % 16.28 C
1836 29-07-2018 08:55:00 18.4 C 89 % 16.55 C
1837 29-07-2018 09:00:00 18.7 C 88 % 16.67 C
1838 29-07-2018 09:05:00 18.9 C 86 % 16.51 C
1839 29-07-2018 09:10:00 19.2 C 86 % 16.8 C
1840 29-07-2018 09:15:00 19.6 C 85 % 17.01 C
1841 29-07-2018 09:20:00 19.8 C 85 % 17.21 C
1842 29-07-2018 09:25:00 20.1 C 83 % 17.12 C
1843 29-07-2018 09:30:00 20.4 C 82 % 17.22 C
1844 29-07-2018 09:35:00 20.7 C 80 % 17.13 C
1845 29-07-2018 09:40:00 21 C 81 % 17.61 C
1846 29-07-2018 09:45:00 21.3 C 80 % 17.71 C
1847 29-07-2018 09:50:00 21.6 C 78 % 17.6 C
1848 29-07-2018 09:55:00 21.8 C 76 % 17.38 C
1849 29-07-2018 10:00:00 22.1 C 72 % 16.82 C
1850 29-07-2018 10:05:00 22.3 C 72 % 17.01 C
Sensor: Nr:Datum:Temp:Feuchte:Taupunkt:
Aussen-T/F 1851 29-07-2018 10:10:00 22.6 C 67 % 16.16 C
1852 29-07-2018 10:15:00 22.9 C 74 % 18.02 C
1853 29-07-2018 10:20:00 22.9 C 69 % 16.91 C
1854 29-07-2018 10:25:00 23.1 C 66 % 16.4 C
1855 29-07-2018 10:30:00 23.4 C 70 % 17.62 C
1856 29-07-2018 10:35:00 23.6 C 64 % 16.39 C
1857 29-07-2018 10:40:00 23.8 C 61 % 15.83 C
1858 29-07-2018 10:45:00 24.1 C 65 % 17.11 C
1859 29-07-2018 10:50:00 24.3 C 63 % 16.81 C
1860 29-07-2018 10:55:00 24.4 C 60 % 16.13 C
1861 29-07-2018 11:00:00 24.5 C 60 % 16.23 C
1862 29-07-2018 11:05:00 24.5 C 59 % 15.96 C
1863 29-07-2018 11:10:00 24.6 C 59 % 16.06 C
1864 29-07-2018 11:15:00 24.7 C 59 % 16.15 C
1865 29-07-2018 11:20:00 24.8 C 61 % 16.77 C
1866 29-07-2018 11:25:00 25 C 56 % 15.61 C
1867 29-07-2018 11:30:00 25.2 C 57 % 16.08 C
1868 29-07-2018 11:35:00 25.4 C 56 % 15.99 C
1869 29-07-2018 11:40:00 25.7 C 57 % 16.54 C
1870 29-07-2018 11:45:00 25.8 C 55 % 16.07 C
1871 29-07-2018 11:50:00 26 C 57 % 16.82 C
1872 29-07-2018 11:55:00 26.3 C 54 % 16.25 C
1873 29-07-2018 12:00:00 26.5 C 56 % 17.01 C
1874 29-07-2018 12:05:00 26.7 C 54 % 16.62 C
1875 29-07-2018 12:10:00 26.9 C 52 % 16.21 C
Sensor: Nr:Datum:Temp:Feuchte:Taupunkt:
Aussen-T/F 1876 29-07-2018 12:15:00 27.1 C 53 % 16.7 C
1877 29-07-2018 12:20:00 27.2 C 49 % 15.56 C
1878 29-07-2018 12:25:00 27.2 C 50 % 15.87 C
1879 29-07-2018 12:30:00 27.2 C 50 % 15.87 C
1880 29-07-2018 12:35:00 27.2 C 49 % 15.56 C
1881 29-07-2018 12:40:00 27.3 C 49 % 15.65 C
1882 29-07-2018 12:45:00 27.3 C 48 % 15.33 C
1883 29-07-2018 12:50:00 27.2 C 47 % 14.91 C
1884 29-07-2018 12:55:00 27.2 C 49 % 15.56 C
1885 29-07-2018 13:00:00 27.3 C 47 % 15 C
1886 29-07-2018 13:05:00 27.4 C 49 % 15.74 C
1887 29-07-2018 13:10:00 27.5 C 45 % 14.51 C
1888 29-07-2018 13:15:00 27.6 C 46 % 14.94 C
1889 29-07-2018 13:20:00 27.6 C 46 % 14.94 C
1890 29-07-2018 13:25:00 27.8 C 48 % 15.78 C
1891 29-07-2018 13:30:00 27.8 C 46 % 15.12 C
1892 29-07-2018 13:35:00 28 C 49 % 16.29 C
1893 29-07-2018 13:40:00 28.1 C 47 % 15.73 C
1894 29-07-2018 13:45:00 28.1 C 47 % 15.73 C
1895 29-07-2018 13:50:00 28.1 C 46 % 15.39 C
1896 29-07-2018 13:55:00 28.1 C 47 % 15.73 C
1897 29-07-2018 14:00:00 28.3 C 47 % 15.91 C
1898 29-07-2018 14:05:00 28.5 C 48 % 16.42 C
1899 29-07-2018 14:10:00 28.6 C 46 % 15.85 C
1900 29-07-2018 14:15:00 28.6 C 47 % 16.18 C
Sensor: Nr:Datum:Temp:Feuchte:Taupunkt:
Aussen-T/F 1901 29-07-2018 14:20:00 28.7 C 47 % 16.27 C
1902 29-07-2018 14:25:00 28.7 C 47 % 16.27 C
1903 29-07-2018 14:30:00 28.6 C 49 % 16.84 C
1904 29-07-2018 14:35:00 28.7 C 47 % 16.27 C
1905 29-07-2018 14:40:00 28.7 C 46 % 15.94 C
1906 29-07-2018 14:45:00 28.8 C 46 % 16.03 C
1907 29-07-2018 14:50:00 28.7 C 45 % 15.59 C
1908 29-07-2018 14:55:00 28.8 C 47 % 16.36 C
1909 29-07-2018 15:00:00 28.9 C 46 % 16.12 C
1910 29-07-2018 15:05:00 29.2 C 44 % 15.69 C
1911 29-07-2018 15:10:00 29.4 C 43 % 15.51 C
1912 29-07-2018 15:15:00 29.5 C 42 % 15.24 C
1913 29-07-2018 15:20:00 29.5 C 44 % 15.96 C
1914 29-07-2018 15:25:00 29.6 C 44 % 16.05 C
1915 29-07-2018 15:30:00 29.8 C 42 % 15.51 C
1916 29-07-2018 15:35:00 30 C 42 % 15.69 C
1917 29-07-2018 15:40:00 30.2 C 41 % 15.49 C
1918 29-07-2018 15:45:00 30.3 C 41 % 15.58 C
1919 29-07-2018 15:50:00 30.4 C 39 % 14.89 C
1920 29-07-2018 15:55:00 30.8 C 40 % 15.64 C
1921 29-07-2018 16:00:00 30.9 C 38 % 14.93 C
1922 29-07-2018 16:05:00 30.8 C 41 % 16.02 C
1923 29-07-2018 16:10:00 30.7 C 38 % 14.75 C
1924 29-07-2018 16:15:00 30.8 C 39 % 15.24 C
1925 29-07-2018 16:20:00 31 C 37 % 14.6 C
Sensor: Nr:Datum:Temp:Feuchte:Taupunkt:
Aussen-T/F 1926 29-07-2018 16:25:00 31.1 C 38 % 15.1 C
1927 29-07-2018 16:30:00 31 C 36 % 14.18 C
1928 29-07-2018 16:35:00 31.2 C 37 % 14.78 C
1929 29-07-2018 16:40:00 31.4 C 37 % 14.96 C
1930 29-07-2018 16:45:00 31.6 C 36 % 14.71 C
1931 29-07-2018 16:50:00 31.6 C 36 % 14.71 C
1932 29-07-2018 16:55:00 31.6 C 39 % 15.95 C
1933 29-07-2018 17:00:00 31.7 C 36 % 14.79 C
1934 29-07-2018 17:05:00 31.8 C 38 % 15.72 C
1935 29-07-2018 17:10:00 32.2 C 35 % 14.8 C
1936 29-07-2018 17:15:00 32.1 C 34 % 14.26 C
1937 29-07-2018 17:20:00 31.4 C 36 % 14.53 C
1938 29-07-2018 17:25:00 31.1 C 36 % 14.27 C
1939 29-07-2018 17:30:00 30.9 C 39 % 15.33 C
1940 29-07-2018 17:35:00 31.1 C 38 % 15.1 C
1941 29-07-2018 17:40:00 31.8 C 36 % 14.88 C
1942 29-07-2018 17:45:00 32.4 C 35 % 14.97 C
1943 29-07-2018 17:50:00 32.6 C 35 % 15.15 C
1944 29-07-2018 17:55:00 32.4 C 35 % 14.97 C
1945 29-07-2018 18:00:00 32.3 C 36 % 15.32 C
1946 29-07-2018 18:05:00 32.3 C 37 % 15.75 C
1947 29-07-2018 18:10:00 32.4 C 35 % 14.97 C
1948 29-07-2018 18:15:00 32.6 C 35 % 15.15 C
1949 29-07-2018 18:20:00 32.7 C 36 % 15.67 C
1950 29-07-2018 18:25:00 32.7 C 34 % 14.78 C
Sensor: Nr:Datum:Temp:Feuchte:Taupunkt:
Aussen-T/F 1951 29-07-2018 18:30:00 32.7 C 35 % 15.23 C
1952 29-07-2018 18:35:00 32.8 C 35 % 15.32 C
1953 29-07-2018 18:40:00 32.9 C 35 % 15.41 C
1954 29-07-2018 18:45:00 32.8 C 36 % 15.76 C
1955 29-07-2018 18:50:00 32.7 C 36 % 15.67 C
1956 29-07-2018 18:55:00 32.7 C 35 % 15.23 C
1957 29-07-2018 19:00:00 32.6 C 37 % 16.01 C
1958 29-07-2018 19:05:00 32.5 C 37 % 15.92 C
1959 29-07-2018 19:10:00 32.2 C 37 % 15.66 C
1960 29-07-2018 19:15:00 31.8 C 40 % 16.53 C
1961 29-07-2018 19:20:00 31.4 C 38 % 15.37 C
1962 29-07-2018 19:25:00 31.2 C 39 % 15.6 C
1963 29-07-2018 19:30:00 31.1 C 39 % 15.51 C
1964 29-07-2018 19:35:00 31 C 40 % 15.82 C
1965 29-07-2018 19:40:00 31.1 C 39 % 15.51 C
1966 29-07-2018 19:45:00 31.1 C 41 % 16.29 C
1967 29-07-2018 19:50:00 31.2 C 42 % 16.76 C
1968 29-07-2018 19:55:00 31.3 C 43 % 17.22 C
1969 29-07-2018 20:00:00 31.2 C 42 % 16.76 C
1970 29-07-2018 20:05:00 31.1 C 46 % 18.11 C
1971 29-07-2018 20:10:00 30.8 C 46 % 17.84 C
1972 29-07-2018 20:15:00 30.5 C 47 % 17.91 C
1973 29-07-2018 20:20:00 30.1 C 49 % 18.21 C
1974 29-07-2018 20:25:00 29.7 C 49 % 17.84 C
1975 29-07-2018 20:30:00 29.3 C 51 % 18.11 C
Sensor: Nr:Datum:Temp:Feuchte:Taupunkt:
Aussen-T/F 1976 29-07-2018 20:35:00 28.9 C 51 % 17.74 C
1977 29-07-2018 20:40:00 28.5 C 53 % 17.99 C
1978 29-07-2018 20:45:00 28.1 C 52 % 17.32 C
1979 29-07-2018 20:50:00 27.7 C 54 % 17.55 C
1980 29-07-2018 20:55:00 27.3 C 52 % 16.58 C
1981 29-07-2018 21:00:00 26.8 C 53 % 16.42 C
1982 29-07-2018 21:05:00 26.4 C 54 % 16.34 C
1983 29-07-2018 21:10:00 26.1 C 57 % 16.92 C
1984 29-07-2018 21:15:00 25.7 C 57 % 16.54 C
1985 29-07-2018 21:20:00 25.4 C 58 % 16.54 C
1986 29-07-2018 21:25:00 25.1 C 59 % 16.52 C
1987 29-07-2018 21:30:00 24.8 C 60 % 16.51 C
1988 29-07-2018 21:35:00 24.4 C 62 % 16.65 C
1989 29-07-2018 21:40:00 24.2 C 62 % 16.46 C
1990 29-07-2018 21:45:00 23.9 C 63 % 16.43 C
1991 29-07-2018 21:50:00 23.7 C 63 % 16.24 C
1992 29-07-2018 21:55:00 23.4 C 64 % 16.2 C
1993 29-07-2018 22:00:00 23.2 C 65 % 16.26 C
1994 29-07-2018 22:05:00 23 C 66 % 16.31 C
1995 29-07-2018 22:10:00 22.8 C 68 % 16.59 C
1996 29-07-2018 22:15:00 22.7 C 68 % 16.49 C
1997 29-07-2018 22:20:00 22.4 C 67 % 15.97 C
1998 29-07-2018 22:25:00 22.3 C 68 % 16.11 C
1999 29-07-2018 22:30:00 22.2 C 67 % 15.78 C
2000 29-07-2018 22:35:00 22 C 67 % 15.59 C
Sensor: Nr:Datum:Temp:Feuchte:Taupunkt:
Aussen-T/F 2001 29-07-2018 22:40:00 21.8 C 68 % 15.63 C
2002 29-07-2018 22:45:00 21.7 C 68 % 15.54 C
2003 29-07-2018 22:50:00 21.6 C 68 % 15.44 C
2004 29-07-2018 22:55:00 21.5 C 68 % 15.35 C
2005 29-07-2018 23:00:00 21.3 C 69 % 15.38 C
2006 29-07-2018 23:05:00 21.2 C 70 % 15.51 C
2007 29-07-2018 23:10:00 21.1 C 70 % 15.42 C
2008 29-07-2018 23:15:00 21 C 69 % 15.1 C
2009 29-07-2018 23:20:00 20.9 C 70 % 15.23 C
2010 29-07-2018 23:25:00 20.8 C 71 % 15.35 C
2011 29-07-2018 23:30:00 20.7 C 72 % 15.47 C
2012 29-07-2018 23:35:00 20.5 C 72 % 15.28 C
2013 29-07-2018 23:40:00 20.3 C 73 % 15.3 C
2014 29-07-2018 23:45:00 20.1 C 72 % 14.9 C
2015 29-07-2018 23:50:00 20 C 73 % 15.01 C
2016 29-07-2018 23:55:00 19.8 C 72 % 14.61 C

Legende:
   Min
   Max


Maximal/Minimal-Werte vom 23.07.2018 - 29.07.2018

Sensor Min Max Avg
Temp
(Aussen-T/F)
15.2 °C
23-07-2018  06:05:00
38.2 °C
26-07-2018  16:55:00
24.34 °C
Feuchte
(Aussen-T/F)
22 %
26-07-2018  16:55:00
93 %
24-07-2018  07:20:00
62.19 %
Taupunkt
(Aussen-T/F)
11.68 C
26-07-2018  17:55:00
22.12 C
28-07-2018  17:45:00
15.41 C

Die Daten stammen von einer Davis Vantage Pro 2 Wetter-Station und werden unter Linux mit der Software wview2wettercgi und aufbereitet. Alle Angaben erfolgen ohne Gewähr für ihre Vollständigkeit oder Richtigkeit.
Kontakt: Rainer Krienke krienke@uni-koblenz.de . Meine Webseiten an der Uni Koblenz oder privat.
Version: $Revision: 0.78 $